Observation data for Reese Center on 05/24/2020      Previous  Date  Next       Current Mesonet Observations  Soil Data  Daily Summary Page  Observations in Plain Language
KREE 240500Z 15012KT 20/15 A2985 RMK A01 T02010148  RH  071%=      5-min Rain = 0
KREE 240501Z 15013KT 20/15 A2985 RMK A01 T02010148  RH  072%=      5-min Rain = 0
KREE 240502Z 15013KT 20/15 A2985 RMK A01 T02010148  RH  072%=      5-min Rain = 0
KREE 240503Z 16014KT 20/15 A2986 RMK A01 T02010148  RH  071%=      5-min Rain = 0
KREE 240504Z 16013KT 20/15 A2985 RMK A01 T02010148  RH  071%=      5-min Rain = 0
KREE 240505Z 15012KT 20/15 A2985 RMK A01 T02010149  RH  072%=      5-min Rain = 0
KREE 240506Z 15013KT 20/15 A2985 RMK A01 T02010149  RH  072%=      5-min Rain = 0
KREE 240507Z 15012KT 20/15 A2985 RMK A01 T02000149  RH  072%=      5-min Rain = 0
KREE 240508Z 16012KT 20/15 A2986 RMK A01 T02000149  RH  072%=      5-min Rain = 0
KREE 240509Z 17013KT 20/15 A2986 RMK A01 T02000149  RH  072%=      5-min Rain = 0
KREE 240510Z 17013KT 20/15 A2986 RMK A01 T02000149  RH  073%=      5-min Rain = 0
KREE 240511Z 16012KT 20/15 A2986 RMK A01 T02000150  RH  073%=      5-min Rain = 0
KREE 240512Z 15012G18KT 20/15 A2986 RMK A01 T01990150  RH  073%=      5-min Rain = 0
KREE 240513Z 15014G19KT 20/15 A2986 RMK A01 T01990148  RH  072%=      5-min Rain = 0
KREE 240514Z 15014KT 20/15 A2986 RMK A01 T02000147  RH  072%=      5-min Rain = 0
KREE 240515Z 14018G23KT 20/15 A2985 RMK A01 T02010147  RH  071%=      5-min Rain = 0
KREE 240516Z 15015KT 20/15 A2985 RMK A01 T02020146  RH  070%=      5-min Rain = 0
KREE 240517Z 16014KT 20/15 A2986 RMK A01 T02030147  RH  070%=      5-min Rain = 0
KREE 240518Z 17013KT 20/15 A2986 RMK A01 T02030148  RH  071%=      5-min Rain = 0
KREE 240519Z 17013KT 20/15 A2986 RMK A01 T02010149  RH  072%=      5-min Rain = 0
KREE 240520Z 17012KT 20/15 A2986 RMK A01 T02000149  RH  073%=      5-min Rain = 0
KREE 240521Z 16013KT 20/15 A2986 RMK A01 T01980149  RH  073%=      5-min Rain = 0
KREE 240522Z 16014KT 20/15 A2986 RMK A01 T01970150  RH  074%=      5-min Rain = 0
KREE 240523Z 15015KT 20/15 A2986 RMK A01 T01970149  RH  074%=      5-min Rain = 0
KREE 240524Z 15015KT 20/15 A2986 RMK A01 T01970149  RH  074%=      5-min Rain = 0
KREE 240525Z 15015KT 20/15 A2986 RMK A01 T01970148  RH  074%=      5-min Rain = 0
KREE 240526Z 15013KT 20/15 A2986 RMK A01 T01970148  RH  074%=      5-min Rain = 0
KREE 240527Z 16013KT 20/15 A2986 RMK A01 T01970148  RH  074%=      5-min Rain = 0
KREE 240528Z 16012KT 20/15 A2986 RMK A01 T01960148  RH  074%=      5-min Rain = 0
KREE 240529Z 16013KT 20/15 A2986 RMK A01 T01960148  RH  074%=      5-min Rain = 0
KREE 240530Z 16013KT 20/15 A2986 RMK A01 T01960148  RH  073%=      5-min Rain = 0
KREE 240531Z 17012KT 20/15 A2986 RMK A01 T01960148  RH  073%=      5-min Rain = 0
KREE 240532Z 17012KT 20/15 A2987 RMK A01 T01950148  RH  074%=      5-min Rain = 0
KREE 240533Z 17012KT 20/15 A2987 RMK A01 T01950148  RH  074%=      5-min Rain = 0
KREE 240534Z 17011KT 19/15 A2986 RMK A01 T01940148  RH  075%=      5-min Rain = 0
KREE 240535Z 17011KT 19/15 A2986 RMK A01 T01930148  RH  075%=      5-min Rain = 0
KREE 240536Z 17012KT 19/15 A2986 RMK A01 T01930149  RH  076%=      5-min Rain = 0
KREE 240537Z 17011KT 19/15 A2986 RMK A01 T01920148  RH  076%=      5-min Rain = 0
KREE 240538Z 16013KT 19/15 A2986 RMK A01 T01920148  RH  076%=      5-min Rain = 0
KREE 240539Z 16014KT 19/15 A2986 RMK A01 T01910148  RH  076%=      5-min Rain = 0
KREE 240540Z 16013KT 19/15 A2986 RMK A01 T01910147  RH  075%=      5-min Rain = 0
KREE 240541Z 16014KT 19/15 A2987 RMK A01 T01910147  RH  075%=      5-min Rain = 0
KREE 240542Z 15014KT 19/15 A2987 RMK A01 T01910147  RH  075%=      5-min Rain = 0
KREE 240543Z 15014KT 19/15 A2987 RMK A01 T01910147  RH  075%=      5-min Rain = 0
KREE 240544Z 16014G19KT 19/15 A2987 RMK A01 T01910147  RH  075%=      5-min Rain = 0
KREE 240545Z 16014KT 19/15 A2987 RMK A01 T01910146  RH  075%=      5-min Rain = 0
KREE 240546Z 16014KT 19/15 A2987 RMK A01 T01910146  RH  075%=      5-min Rain = 0
KREE 240547Z 16014KT 19/15 A2987 RMK A01 T01910146  RH  075%=      5-min Rain = 0
KREE 240548Z 16014KT 19/15 A2987 RMK A01 T01900146  RH  075%=      5-min Rain = 0
KREE 240549Z 16015KT 19/15 A2987 RMK A01 T01900146  RH  076%=      5-min Rain = 0
KREE 240550Z 16015KT 19/15 A2987 RMK A01 T01890146  RH  076%=      5-min Rain = 0
KREE 240551Z 16014KT 19/15 A2987 RMK A01 T01890146  RH  076%=      5-min Rain = 0
KREE 240552Z 16013KT 19/15 A2988 RMK A01 T01880146  RH  077%=      5-min Rain = 0
KREE 240553Z 15014KT 19/15 A2988 RMK A01 T01870146  RH  077%=      5-min Rain = 0
KREE 240554Z 15014KT 19/15 A2988 RMK A01 T01870146  RH  077%=      5-min Rain = 0
KREE 240555Z 15016KT 19/15 A2988 RMK A01 T01860145  RH  077%=      5-min Rain = 0
KREE 240556Z 15016KT 19/14 A2987 RMK A01 T01870143  RH  076%=      5-min Rain = 0
KREE 240557Z 15015KT 19/14 A2988 RMK A01 T01870142  RH  075%=      5-min Rain = 0
KREE 240558Z 15017KT 19/14 A2987 RMK A01 T01870142  RH  075%=      5-min Rain = 0
KREE 240559Z 15016KT 19/14 A2987 RMK A01 T01870141  RH  075%=      5-min Rain = 0
KREE 240600Z 15016KT 19/14 A2987 RMK A01 T01870141  RH  074%=      5-min Rain = 0
KREE 240601Z 15015G20KT 19/14 A2987 RMK A01 T01870141  RH  074%=      5-min Rain = 0
KREE 240602Z 15016KT 19/14 A2987 RMK A01 T01870141  RH  074%=      5-min Rain = 0
KREE 240603Z 15015KT 19/14 A2987 RMK A01 T01870140  RH  075%=      5-min Rain = 0
KREE 240604Z 15015KT 19/14 A2987 RMK A01 T01860141  RH  075%=      5-min Rain = 0
KREE 240605Z 15016G21KT 19/14 A2987 RMK A01 T01860140  RH  075%=      5-min Rain = 0
KREE 240606Z 15014KT 19/14 A2987 RMK A01 T01850141  RH  075%=      5-min Rain = 0
KREE 240607Z 15014KT 19/14 A2987 RMK A01 T01850141  RH  076%=      5-min Rain = 0
KREE 240608Z 15013KT 18/14 A2987 RMK A01 T01840141  RH  076%=      5-min Rain = 0
KREE 240609Z 15013KT 18/14 A2987 RMK A01 T01830141  RH  076%=      5-min Rain = 0
KREE 240610Z 15012KT 18/14 A2987 RMK A01 T01830141  RH  077%=      5-min Rain = 0
KREE 240611Z 15012KT 18/14 A2987 RMK A01 T01820141  RH  077%=      5-min Rain = 0
KREE 240612Z 16013KT 18/14 A2987 RMK A01 T01820141  RH  077%=      5-min Rain = 0
KREE 240613Z 16013KT 18/14 A2987 RMK A01 T01810140  RH  077%=      5-min Rain = 0
KREE 240614Z 17012KT 18/14 A2987 RMK A01 T01810140  RH  077%=      5-min Rain = 0
KREE 240615Z 17012KT 18/14 A2987 RMK A01 T01800141  RH  078%=      5-min Rain = 0
KREE 240616Z 17012KT 18/14 A2987 RMK A01 T01790141  RH  078%=      5-min Rain = 0
KREE 240617Z 16011KT 18/14 A2987 RMK A01 T01790141  RH  079%=      5-min Rain = 0
KREE 240618Z 17011KT 18/14 A2987 RMK A01 T01780141  RH  079%=      5-min Rain = 0
KREE 240619Z 18013KT 18/14 A2987 RMK A01 T01770141  RH  079%=      5-min Rain = 0
KREE 240620Z 17012KT 18/14 A2987 RMK A01 T01770141  RH  079%=      5-min Rain = 0
KREE 240621Z 16013KT 18/14 A2987 RMK A01 T01760141  RH  080%=      5-min Rain = 0
KREE 240622Z 16012KT 18/14 A2987 RMK A01 T01750141  RH  080%=      5-min Rain = 0
KREE 240623Z 16012KT 18/14 A2987 RMK A01 T01750141  RH  080%=      5-min Rain = 0
KREE 240624Z 16013KT 18/14 A2987 RMK A01 T01750141  RH  080%=      5-min Rain = 0
KREE 240625Z 15011KT 18/14 A2987 RMK A01 T01750141  RH  081%=      5-min Rain = 0
KREE 240626Z 15013KT 17/14 A2987 RMK A01 T01740141  RH  081%=      5-min Rain = 0
KREE 240627Z 15012KT 17/14 A2986 RMK A01 T01740141  RH  081%=      5-min Rain = 0
KREE 240628Z 15013KT 17/14 A2986 RMK A01 T01740141  RH  081%=      5-min Rain = 0
KREE 240629Z 15013KT 17/14 A2986 RMK A01 T01740141  RH  081%=      5-min Rain = 0
KREE 240630Z 17012KT 17/14 A2987 RMK A01 T01740140  RH  081%=      5-min Rain = 0
KREE 240631Z 17011KT 17/14 A2987 RMK A01 T01740141  RH  081%=      5-min Rain = 0
KREE 240632Z 17012KT 17/14 A2987 RMK A01 T01740141  RH  081%=      5-min Rain = 0
KREE 240633Z 16012KT 17/14 A2987 RMK A01 T01730141  RH  082%=      5-min Rain = 0
KREE 240634Z 16012KT 17/14 A2987 RMK A01 T01730142  RH  082%=      5-min Rain = 0
KREE 240635Z 16012KT 17/14 A2987 RMK A01 T01720142  RH  082%=      5-min Rain = 0
KREE 240636Z 16013KT 17/14 A2986 RMK A01 T01720142  RH  083%=      5-min Rain = 0
KREE 240637Z 16012KT 17/14 A2986 RMK A01 T01720142  RH  083%=      5-min Rain = 0
KREE 240638Z 16012KT 17/14 A2987 RMK A01 T01720142  RH  083%=      5-min Rain = 0
KREE 240639Z 15012KT 17/14 A2986 RMK A01 T01710142  RH  083%=      5-min Rain = 0
KREE 240640Z 15013KT 17/14 A2986 RMK A01 T01710143  RH  083%=      5-min Rain = 0
KREE 240641Z 15014KT 17/14 A2986 RMK A01 T01700142  RH  083%=      5-min Rain = 0
KREE 240642Z 15015KT 17/14 A2986 RMK A01 T01710142  RH  083%=      5-min Rain = 0
KREE 240643Z 15012KT 17/14 A2986 RMK A01 T01710142  RH  083%=      5-min Rain = 0
KREE 240644Z 16013KT 17/14 A2986 RMK A01 T01710142  RH  083%=      5-min Rain = 0
KREE 240645Z 16012KT 17/14 A2986 RMK A01 T01710143  RH  083%=      5-min Rain = 0
KREE 240646Z 16013KT 17/14 A2986 RMK A01 T01710143  RH  083%=      5-min Rain = 0
KREE 240647Z 16013KT 17/14 A2986 RMK A01 T01710143  RH  084%=      5-min Rain = 0
KREE 240648Z 16012KT 17/14 A2986 RMK A01 T01710143  RH  084%=      5-min Rain = 0
KREE 240649Z 16012KT 17/14 A2986 RMK A01 T01710143  RH  084%=      5-min Rain = 0
KREE 240650Z 16012KT 17/14 A2986 RMK A01 T01710144  RH  084%=      5-min Rain = 0
KREE 240651Z 16012KT 17/14 A2986 RMK A01 T01700144  RH  084%=      5-min Rain = 0
KREE 240652Z 16012KT 17/14 A2986 RMK A01 T01700144  RH  084%=      5-min Rain = 0
KREE 240653Z 16013KT 17/14 A2986 RMK A01 T01700144  RH  084%=      5-min Rain = 0
KREE 240654Z 16013KT 17/14 A2986 RMK A01 T01700144  RH  085%=      5-min Rain = 0
KREE 240655Z 16013KT 17/14 A2986 RMK A01 T01700144  RH  085%=      5-min Rain = 0
KREE 240656Z 16012KT 17/14 A2986 RMK A01 T01690144  RH  085%=      5-min Rain = 0
KREE 240657Z 16013KT 17/14 A2986 RMK A01 T01690144  RH  085%=      5-min Rain = 0
KREE 240658Z 15013KT 17/14 A2986 RMK A01 T01690144  RH  085%=      5-min Rain = 0
KREE 240659Z 15013KT 17/14 A2986 RMK A01 T01690144  RH  085%=      5-min Rain = 0
KREE 240700Z 16012KT 17/14 A2986 RMK A01 T01690143  RH  085%=      5-min Rain = 0
KREE 240701Z 15012KT 17/14 A2986 RMK A01 T01690143  RH  085%=      5-min Rain = 0
KREE 240702Z 16013KT 17/14 A2986 RMK A01 T01690143  RH  085%=      5-min Rain = 0
KREE 240703Z 16013KT 17/14 A2986 RMK A01 T01690144  RH  085%=      5-min Rain = 0
KREE 240704Z 16012KT 17/14 A2986 RMK A01 T01690144  RH  085%=      5-min Rain = 0
KREE 240705Z 16012KT 17/14 A2986 RMK A01 T01680144  RH  085%=      5-min Rain = 0
KREE 240706Z 16012KT 17/14 A2986 RMK A01 T01680144  RH  086%=      5-min Rain = 0
KREE 240707Z 16012KT 17/14 A2986 RMK A01 T01680144  RH  086%=      5-min Rain = 0
KREE 240708Z 16012KT 17/14 A2986 RMK A01 T01680144  RH  086%=      5-min Rain = 0
KREE 240709Z 16012KT 17/14 A2986 RMK A01 T01680144  RH  086%=      5-min Rain = 0
KREE 240710Z 15012KT 17/14 A2986 RMK A01 T01670143  RH  086%=      5-min Rain = 0
KREE 240711Z 15012KT 17/14 A2986 RMK A01 T01670143  RH  086%=      5-min Rain = 0
KREE 240712Z 15013KT 17/14 A2986 RMK A01 T01670143  RH  086%=      5-min Rain = 0
KREE 240713Z 15012KT 17/14 A2986 RMK A01 T01670142  RH  086%=      5-min Rain = 0
KREE 240714Z 15012KT 17/14 A2986 RMK A01 T01670142  RH  085%=      5-min Rain = 0
KREE 240715Z 16012KT 17/14 A2986 RMK A01 T01670142  RH  085%=      5-min Rain = 0
KREE 240716Z 16011KT 17/14 A2986 RMK A01 T01670142  RH  086%=      5-min Rain = 0
KREE 240717Z 16010KT 17/14 A2986 RMK A01 T01660143  RH  086%=      5-min Rain = 0
KREE 240718Z 16011KT 17/14 A2986 RMK A01 T01660143  RH  086%=      5-min Rain = 0
KREE 240719Z 16011KT 17/14 A2986 RMK A01 T01650143  RH  086%=      5-min Rain = 0
KREE 240720Z 16011KT 17/14 A2986 RMK A01 T01650143  RH  087%=      5-min Rain = 0
KREE 240721Z 16010KT 17/14 A2986 RMK A01 T01650143  RH  087%=      5-min Rain = 0
KREE 240722Z 16012KT 17/14 A2986 RMK A01 T01650143  RH  087%=      5-min Rain = 0
KREE 240723Z 16012KT 17/14 A2986 RMK A01 T01650143  RH  087%=      5-min Rain = 0
KREE 240724Z 16013KT 17/14 A2986 RMK A01 T01650142  RH  086%=      5-min Rain = 0
KREE 240725Z 16013KT 17/14 A2986 RMK A01 T01650142  RH  086%=      5-min Rain = 0
KREE 240726Z 15013KT 17/14 A2986 RMK A01 T01650141  RH  086%=      5-min Rain = 0
KREE 240727Z 16013KT 17/14 A2986 RMK A01 T01650141  RH  086%=      5-min Rain = 0
KREE 240728Z 15011KT 17/14 A2986 RMK A01 T01650141  RH  086%=      5-min Rain = 0
KREE 240729Z 16012KT 17/14 A2986 RMK A01 T01650141  RH  086%=      5-min Rain = 0
KREE 240730Z 16013KT 17/14 A2986 RMK A01 T01650140  RH  085%=      5-min Rain = 0
KREE 240731Z 16012KT 17/14 A2986 RMK A01 T01650139  RH  085%=      5-min Rain = 0
KREE 240732Z 16012KT 17/14 A2986 RMK A01 T01650139  RH  084%=      5-min Rain = 0
KREE 240733Z 16012KT 17/14 A2986 RMK A01 T01650138  RH  084%=      5-min Rain = 0
KREE 240734Z 16012KT 17/14 A2986 RMK A01 T01650138  RH  084%=      5-min Rain = 0
KREE 240735Z 16013KT 17/14 A2986 RMK A01 T01650138  RH  084%=      5-min Rain = 0
KREE 240736Z 16012KT 17/14 A2986 RMK A01 T01650138  RH  084%=      5-min Rain = 0
KREE 240737Z 16012KT 17/14 A2986 RMK A01 T01650138  RH  084%=      5-min Rain = 0
KREE 240738Z 16011KT 17/14 A2986 RMK A01 T01650137  RH  084%=      5-min Rain = 0
KREE 240739Z 16010KT 17/14 A2986 RMK A01 T01650137  RH  084%=      5-min Rain = 0
KREE 240740Z 16010KT 16/14 A2986 RMK A01 T01640137  RH  084%=      5-min Rain = 0
KREE 240741Z 16011KT 16/14 A2986 RMK A01 T01640137  RH  084%=      5-min Rain = 0
KREE 240742Z 16012KT 16/14 A2986 RMK A01 T01640137  RH  084%=      5-min Rain = 0
KREE 240743Z 16011KT 16/14 A2986 RMK A01 T01640137  RH  084%=      5-min Rain = 0
KREE 240744Z 16013KT 16/14 A2986 RMK A01 T01640136  RH  084%=      5-min Rain = 0
KREE 240745Z 16011KT 16/14 A2986 RMK A01 T01640136  RH  083%=      5-min Rain = 0
KREE 240746Z 16011KT 16/14 A2986 RMK A01 T01640136  RH  083%=      5-min Rain = 0
KREE 240747Z 16011KT 16/14 A2986 RMK A01 T01640136  RH  083%=      5-min Rain = 0
KREE 240748Z 16012KT 16/14 A2986 RMK A01 T01640136  RH  083%=      5-min Rain = 0
KREE 240749Z 16012KT 16/14 A2986 RMK A01 T01640135  RH  083%=      5-min Rain = 0
KREE 240750Z 16013KT 16/13 A2985 RMK A01 T01640134  RH  083%=      5-min Rain = 0
KREE 240751Z 16013KT 16/13 A2985 RMK A01 T01640133  RH  082%=      5-min Rain = 0
KREE 240752Z 16013KT 16/13 A2986 RMK A01 T01640132  RH  081%=      5-min Rain = 0
KREE 240753Z 16014KT 17/13 A2986 RMK A01 T01650131  RH  081%=      5-min Rain = 0
KREE 240754Z 16014KT 17/13 A2986 RMK A01 T01650130  RH  080%=      5-min Rain = 0
KREE 240755Z 16014KT 17/13 A2986 RMK A01 T01650130  RH  079%=      5-min Rain = 0
KREE 240756Z 16013KT 17/13 A2986 RMK A01 T01660130  RH  079%=      5-min Rain = 0
KREE 240757Z 16014KT 17/13 A2985 RMK A01 T01660129  RH  078%=      5-min Rain = 0
KREE 240758Z 16013KT 17/13 A2985 RMK A01 T01670129  RH  078%=      5-min Rain = 0
KREE 240759Z 16014KT 17/13 A2985 RMK A01 T01670129  RH  078%=      5-min Rain = 0
KREE 240800Z 16013KT 17/13 A2985 RMK A01 T01670129  RH  078%=      5-min Rain = 0
KREE 240801Z 16013KT 17/13 A2985 RMK A01 T01660129  RH  079%=      5-min Rain = 0
KREE 240802Z 16012KT 17/13 A2985 RMK A01 T01660129  RH  079%=      5-min Rain = 0
KREE 240803Z 16012KT 17/13 A2985 RMK A01 T01660129  RH  079%=      5-min Rain = 0
KREE 240804Z 16011KT 17/13 A2985 RMK A01 T01650129  RH  079%=      5-min Rain = 0
KREE 240805Z 16011KT 17/13 A2985 RMK A01 T01650129  RH  079%=      5-min Rain = 0
KREE 240806Z 16011KT 17/13 A2985 RMK A01 T01650129  RH  079%=      5-min Rain = 0
KREE 240807Z 16012KT 17/13 A2985 RMK A01 T01650128  RH  079%=      5-min Rain = 0
KREE 240808Z 16013KT 17/13 A2985 RMK A01 T01650128  RH  079%=      5-min Rain = 0
KREE 240809Z 16012KT 17/13 A2985 RMK A01 T01650128  RH  079%=      5-min Rain = 0
KREE 240810Z 16013KT 17/13 A2985 RMK A01 T01650128  RH  079%=      5-min Rain = 0
KREE 240811Z 16013KT 17/13 A2985 RMK A01 T01650128  RH  079%=      5-min Rain = 0
KREE 240812Z 16012KT 17/13 A2985 RMK A01 T01650128  RH  079%=      5-min Rain = 0
KREE 240813Z 16014KT 17/13 A2985 RMK A01 T01650128  RH  079%=      5-min Rain = 0
KREE 240814Z 16013KT 17/13 A2985 RMK A01 T01650128  RH  079%=      5-min Rain = 0
KREE 240815Z 16013KT 17/13 A2985 RMK A01 T01650127  RH  078%=      5-min Rain = 0
KREE 240816Z 15014KT 17/13 A2985 RMK A01 T01650127  RH  078%=      5-min Rain = 0
KREE 240817Z 15013KT 17/13 A2986 RMK A01 T01650127  RH  078%=      5-min Rain = 0
KREE 240818Z 15014KT 17/13 A2985 RMK A01 T01650127  RH  078%=      5-min Rain = 0
KREE 240819Z 15012KT 17/13 A2985 RMK A01 T01650127  RH  078%=      5-min Rain = 0
KREE 240820Z 15012KT 17/13 A2986 RMK A01 T01650127  RH  078%=      5-min Rain = 0
KREE 240821Z 15013KT 16/13 A2985 RMK A01 T01640127  RH  079%=      5-min Rain = 0
KREE 240822Z 15013KT 16/13 A2986 RMK A01 T01640127  RH  079%=      5-min Rain = 0
KREE 240823Z 15012KT 16/13 A2985 RMK A01 T01640127  RH  079%=      5-min Rain = 0
KREE 240824Z 15011KT 16/13 A2985 RMK A01 T01630127  RH  079%=      5-min Rain = 0
KREE 240825Z 15012KT 16/13 A2985 RMK A01 T01630127  RH  079%=      5-min Rain = 0
KREE 240826Z 15012KT 16/13 A2985 RMK A01 T01630126  RH  079%=      5-min Rain = 0
KREE 240827Z 15012KT 16/13 A2985 RMK A01 T01630126  RH  079%=      5-min Rain = 0
KREE 240828Z 15012KT 16/13 A2985 RMK A01 T01640126  RH  078%=      5-min Rain = 0
KREE 240829Z 15012KT 16/13 A2985 RMK A01 T01640125  RH  078%=      5-min Rain = 0
KREE 240830Z 16011KT 16/13 A2985 RMK A01 T01640125  RH  078%=      5-min Rain = 0
KREE 240831Z 16011KT 16/13 A2985 RMK A01 T01640126  RH  078%=      5-min Rain = 0
KREE 240832Z 15011KT 16/13 A2985 RMK A01 T01640126  RH  078%=      5-min Rain = 0
KREE 240833Z 15011KT 16/13 A2985 RMK A01 T01640126  RH  078%=      5-min Rain = 0
KREE 240834Z 15012KT 16/13 A2985 RMK A01 T01630126  RH  078%=      5-min Rain = 0
KREE 240835Z 16012KT 16/13 A2985 RMK A01 T01630126  RH  078%=      5-min Rain = 0
KREE 240836Z 15011KT 16/13 A2985 RMK A01 T01630126  RH  078%=      5-min Rain = 0
KREE 240837Z 15010KT 16/13 A2985 RMK A01 T01630126  RH  078%=      5-min Rain = 0
KREE 240838Z 15011KT 16/13 A2985 RMK A01 T01630126  RH  079%=      5-min Rain = 0
KREE 240839Z 15011KT 16/13 A2985 RMK A01 T01630126  RH  079%=      5-min Rain = 0
KREE 240840Z 15010KT 16/13 A2985 RMK A01 T01620126  RH  079%=      5-min Rain = 0
KREE 240841Z 16011KT 16/13 A2985 RMK A01 T01620125  RH  079%=      5-min Rain = 0
KREE 240842Z 16010KT 16/13 A2985 RMK A01 T01620125  RH  079%=      5-min Rain = 0
KREE 240843Z 16011KT 16/13 A2985 RMK A01 T01620125  RH  079%=      5-min Rain = 0
KREE 240844Z 15010KT 16/13 A2985 RMK A01 T01620125  RH  079%=      5-min Rain = 0
KREE 240845Z 15010KT 16/13 A2985 RMK A01 T01620125  RH  078%=      5-min Rain = 0
KREE 240846Z 16010KT 16/13 A2985 RMK A01 T01620125  RH  078%=      5-min Rain = 0
KREE 240847Z 16010KT 16/12 A2985 RMK A01 T01620124  RH  078%=      5-min Rain = 0
KREE 240848Z 16009KT 16/12 A2985 RMK A01 T01620124  RH  078%=      5-min Rain = 0
KREE 240849Z 16009KT 16/12 A2985 RMK A01 T01620124  RH  078%=      5-min Rain = 0
KREE 240850Z 16010KT 16/12 A2985 RMK A01 T01620124  RH  078%=      5-min Rain = 0
KREE 240851Z 16011KT 16/12 A2985 RMK A01 T01620124  RH  078%=      5-min Rain = 0
KREE 240852Z 16011KT 16/12 A2985 RMK A01 T01620124  RH  078%=      5-min Rain = 0
KREE 240853Z 15010KT 16/12 A2985 RMK A01 T01620123  RH  078%=      5-min Rain = 0
KREE 240854Z 15010KT 16/12 A2985 RMK A01 T01620123  RH  078%=      5-min Rain = 0
KREE 240855Z 16010KT 16/12 A2985 RMK A01 T01610123  RH  078%=      5-min Rain = 0
KREE 240856Z 16010KT 16/12 A2985 RMK A01 T01610123  RH  078%=      5-min Rain = 0
KREE 240857Z 16010KT 16/12 A2985 RMK A01 T01610123  RH  078%=      5-min Rain = 0
KREE 240858Z 16010KT 16/12 A2985 RMK A01 T01610123  RH  078%=      5-min Rain = 0
KREE 240859Z 16011KT 16/12 A2985 RMK A01 T01610123  RH  078%=      5-min Rain = 0
KREE 240900Z 15010KT 16/12 A2985 RMK A01 T01610123  RH  078%=      5-min Rain = 0
KREE 240901Z 15009KT 16/12 A2985 RMK A01 T01610123  RH  078%=      5-min Rain = 0
KREE 240902Z 16010KT 16/12 A2985 RMK A01 T01610123  RH  078%=      5-min Rain = 0
KREE 240903Z 16009KT 16/12 A2985 RMK A01 T01610122  RH  078%=      5-min Rain = 0
KREE 240904Z 16008KT 16/12 A2985 RMK A01 T01610122  RH  078%=      5-min Rain = 0
KREE 240905Z 16009KT 16/12 A2985 RMK A01 T01610121  RH  077%=      5-min Rain = 0
KREE 240906Z 15009KT 16/12 A2985 RMK A01 T01610121  RH  077%=      5-min Rain = 0
KREE 240907Z 16009KT 16/12 A2985 RMK A01 T01620120  RH  076%=      5-min Rain = 0
KREE 240908Z 16009KT 16/12 A2985 RMK A01 T01620120  RH  076%=      5-min Rain = 0
KREE 240909Z 15010KT 16/12 A2985 RMK A01 T01630120  RH  076%=      5-min Rain = 0
KREE 240910Z 15010KT 16/12 A2985 RMK A01 T01630120  RH  076%=      5-min Rain = 0
KREE 240911Z 15009KT 16/12 A2985 RMK A01 T01630119  RH  075%=      5-min Rain = 0
KREE 240912Z 15010KT 16/12 A2985 RMK A01 T01630118  RH  075%=      5-min Rain = 0
KREE 240913Z 15013KT 16/12 A2985 RMK A01 T01640117  RH  074%=      5-min Rain = 0
KREE 240914Z 15013KT 17/12 A2985 RMK A01 T01660116  RH  073%=      5-min Rain = 0
KREE 240915Z 15011KT 17/12 A2985 RMK A01 T01680116  RH  072%=      5-min Rain = 0
KREE 240916Z 15012KT 17/12 A2985 RMK A01 T01680117  RH  072%=      5-min Rain = 0
KREE 240917Z 15012KT 17/12 A2985 RMK A01 T01680117  RH  072%=      5-min Rain = 0
KREE 240918Z 15015KT 17/12 A2985 RMK A01 T01680117  RH  072%=      5-min Rain = 0
KREE 240919Z 15014KT 17/12 A2985 RMK A01 T01680117  RH  072%=      5-min Rain = 0
KREE 240920Z 15013KT 17/12 A2985 RMK A01 T01690117  RH  072%=      5-min Rain = 0
KREE 240921Z 15012KT 17/12 A2985 RMK A01 T01680117  RH  072%=      5-min Rain = 0
KREE 240922Z 15012KT 17/12 A2985 RMK A01 T01680118  RH  072%=      5-min Rain = 0
KREE 240923Z 15012KT 17/12 A2985 RMK A01 T01670118  RH  072%=      5-min Rain = 0
KREE 240924Z 14012KT 17/12 A2985 RMK A01 T01670118  RH  073%=      5-min Rain = 0
KREE 240925Z 15011KT 17/12 A2985 RMK A01 T01670118  RH  073%=      5-min Rain = 0
KREE 240926Z 15010KT 17/12 A2985 RMK A01 T01660118  RH  073%=      5-min Rain = 0
KREE 240927Z 15011KT 17/12 A2985 RMK A01 T01660118  RH  073%=      5-min Rain = 0
KREE 240928Z 15012KT 17/12 A2985 RMK A01 T01650117  RH  073%=      5-min Rain = 0
KREE 240929Z 15011KT 17/12 A2985 RMK A01 T01660117  RH  073%=      5-min Rain = 0
KREE 240930Z 15011KT 17/12 A2985 RMK A01 T01660117  RH  073%=      5-min Rain = 0
KREE 240931Z 16012KT 17/12 A2985 RMK A01 T01660118  RH  073%=      5-min Rain = 0
KREE 240932Z 16012KT 17/12 A2985 RMK A01 T01650118  RH  073%=      5-min Rain = 0
KREE 240933Z 16011KT 17/12 A2985 RMK A01 T01650118  RH  074%=      5-min Rain = 0
KREE 240934Z 16011KT 17/12 A2985 RMK A01 T01650118  RH  073%=      5-min Rain = 0
KREE 240935Z 16010KT 17/12 A2985 RMK A01 T01650118  RH  073%=      5-min Rain = 0
KREE 240936Z 15011KT 17/12 A2985 RMK A01 T01650118  RH  073%=      5-min Rain = 0
KREE 240937Z 15012KT 17/12 A2985 RMK A01 T01650118  RH  073%=      5-min Rain = 0
KREE 240938Z 15012KT 17/12 A2985 RMK A01 T01650117  RH  073%=      5-min Rain = 0
KREE 240939Z 15010KT 17/12 A2985 RMK A01 T01650117  RH  073%=      5-min Rain = 0
KREE 240940Z 15011KT 17/12 A2985 RMK A01 T01650118  RH  073%=      5-min Rain = 0
KREE 240941Z 15012KT 17/12 A2985 RMK A01 T01650118  RH  073%=      5-min Rain = 0
KREE 240942Z 15011KT 17/12 A2985 RMK A01 T01650118  RH  073%=      5-min Rain = 0
KREE 240943Z 15012KT 17/12 A2985 RMK A01 T01650118  RH  074%=      5-min Rain = 0
KREE 240944Z 15012KT 16/12 A2985 RMK A01 T01640118  RH  074%=      5-min Rain = 0
KREE 240945Z 15013KT 17/12 A2985 RMK A01 T01650117  RH  073%=      5-min Rain = 0
KREE 240946Z 15012KT 17/12 A2985 RMK A01 T01650117  RH  073%=      5-min Rain = 0
KREE 240947Z 15011KT 17/12 A2985 RMK A01 T01650117  RH  073%=      5-min Rain = 0
KREE 240948Z 15013KT 17/12 A2985 RMK A01 T01650117  RH  073%=      5-min Rain = 0
KREE 240949Z 15013KT 17/12 A2985 RMK A01 T01660117  RH  073%=      5-min Rain = 0
KREE 240950Z 15013KT 17/12 A2985 RMK A01 T01660116  RH  073%=      5-min Rain = 0
KREE 240951Z 15012KT 17/12 A2985 RMK A01 T01670116  RH  072%=      5-min Rain = 0
KREE 240952Z 15013KT 17/12 A2985 RMK A01 T01680116  RH  071%=      5-min Rain = 0
KREE 240953Z 15011KT 17/12 A2985 RMK A01 T01690116  RH  071%=      5-min Rain = 0
KREE 240954Z 15011KT 17/12 A2985 RMK A01 T01680117  RH  072%=      5-min Rain = 0
KREE 240955Z 15012KT 17/12 A2985 RMK A01 T01670117  RH  072%=      5-min Rain = 0
KREE 240956Z 15011KT 17/12 A2985 RMK A01 T01670117  RH  072%=      5-min Rain = 0
KREE 240957Z 15011KT 17/12 A2985 RMK A01 T01660118  RH  073%=      5-min Rain = 0
KREE 240958Z 15010KT 17/12 A2985 RMK A01 T01660118  RH  073%=      5-min Rain = 0
KREE 240959Z 15011KT 17/12 A2985 RMK A01 T01650118  RH  074%=      5-min Rain = 0
KREE 241000Z 16010KT 16/12 A2985 RMK A01 T01640118  RH  074%=      5-min Rain = 0
KREE 241001Z 15010KT 16/12 A2985 RMK A01 T01640118  RH  074%=      5-min Rain = 0
KREE 241002Z 15009KT 16/12 A2985 RMK A01 T01630118  RH  075%=      5-min Rain = 0
KREE 241003Z 15008KT 16/12 A2985 RMK A01 T01630118  RH  075%=      5-min Rain = 0
KREE 241004Z 15010KT 16/12 A2985 RMK A01 T01620118  RH  075%=      5-min Rain = 0
KREE 241005Z 15010KT 16/12 A2985 RMK A01 T01620118  RH  075%=      5-min Rain = 0
KREE 241006Z 15009KT 16/12 A2986 RMK A01 T01620118  RH  075%=      5-min Rain = 0
KREE 241007Z 15010KT 16/12 A2986 RMK A01 T01620118  RH  075%=      5-min Rain = 0
KREE 241008Z 15011KT 16/12 A2985 RMK A01 T01630118  RH  075%=      5-min Rain = 0
KREE 241009Z 15012KT 16/12 A2985 RMK A01 T01630118  RH  074%=      5-min Rain = 0
KREE 241010Z 15013KT 16/12 A2985 RMK A01 T01640117  RH  073%=      5-min Rain = 0
KREE 241011Z 15011KT 17/12 A2986 RMK A01 T01660117  RH  073%=      5-min Rain = 0
KREE 241012Z 15010KT 17/12 A2986 RMK A01 T01660117  RH  073%=      5-min Rain = 0
KREE 241013Z 15010KT 17/12 A2986 RMK A01 T01660117  RH  073%=      5-min Rain = 0
KREE 241014Z 15011KT 17/12 A2985 RMK A01 T01660118  RH  073%=      5-min Rain = 0
KREE 241015Z 15011KT 17/12 A2985 RMK A01 T01650117  RH  073%=      5-min Rain = 0
KREE 241016Z 15012KT 17/12 A2986 RMK A01 T01650117  RH  073%=      5-min Rain = 0
KREE 241017Z 16010KT 17/12 A2986 RMK A01 T01660117  RH  073%=      5-min Rain = 0
KREE 241018Z 16010KT 17/12 A2985 RMK A01 T01660117  RH  073%=      5-min Rain = 0
KREE 241019Z 15011KT 17/12 A2985 RMK A01 T01660117  RH  073%=      5-min Rain = 0
KREE 241020Z 15011KT 17/12 A2985 RMK A01 T01650118  RH  073%=      5-min Rain = 0
KREE 241021Z 15010KT 17/12 A2986 RMK A01 T01650118  RH  073%=      5-min Rain = 0
KREE 241022Z 16012KT 17/12 A2986 RMK A01 T01650118  RH  074%=      5-min Rain = 0
KREE 241023Z 15011KT 17/12 A2986 RMK A01 T01650118  RH  074%=      5-min Rain = 0
KREE 241024Z 15010KT 17/12 A2986 RMK A01 T01650118  RH  074%=      5-min Rain = 0
KREE 241025Z 16009KT 16/12 A2986 RMK A01 T01640118  RH  074%=      5-min Rain = 0
KREE 241026Z 15009KT 16/12 A2986 RMK A01 T01640118  RH  074%=      5-min Rain = 0
KREE 241027Z 15010KT 16/12 A2986 RMK A01 T01640117  RH  074%=      5-min Rain = 0
KREE 241028Z 16011KT 16/12 A2986 RMK A01 T01640117  RH  074%=      5-min Rain = 0
KREE 241029Z 16012KT 16/12 A2986 RMK A01 T01640117  RH  074%=      5-min Rain = 0
KREE 241030Z 16013G18KT 17/12 A2986 RMK A01 T01650117  RH  073%=      5-min Rain = 0
KREE 241031Z 16013KT 17/12 A2986 RMK A01 T01660117  RH  073%=      5-min Rain = 0
KREE 241032Z 16013KT 17/12 A2986 RMK A01 T01660118  RH  073%=      5-min Rain = 0
KREE 241033Z 16012KT 17/12 A2986 RMK A01 T01660119  RH  073%=      5-min Rain = 0
KREE 241034Z 16011KT 17/12 A2986 RMK A01 T01660119  RH  074%=      5-min Rain = 0
KREE 241035Z 16011G16KT 17/12 A2986 RMK A01 T01650119  RH  074%=      5-min Rain = 0
KREE 241036Z 16012KT 17/12 A2986 RMK A01 T01650119  RH  074%=      5-min Rain = 0
KREE 241037Z 16012KT 17/12 A2986 RMK A01 T01650118  RH  074%=      5-min Rain = 0
KREE 241038Z 16012KT 17/12 A2986 RMK A01 T01650119  RH  074%=      5-min Rain = 0
KREE 241039Z 16011KT 17/12 A2986 RMK A01 T01650119  RH  074%=      5-min Rain = 0
KREE 241040Z 16010KT 16/12 A2986 RMK A01 T01640120  RH  075%=      5-min Rain = 0
KREE 241041Z 16009KT 16/12 A2986 RMK A01 T01630120  RH  075%=      5-min Rain = 0
KREE 241042Z 16009KT 16/12 A2986 RMK A01 T01620120  RH  076%=      5-min Rain = 0
KREE 241043Z 16009KT 16/12 A2986 RMK A01 T01620120  RH  076%=      5-min Rain = 0
KREE 241044Z 17009KT 16/12 A2986 RMK A01 T01610120  RH  077%=      5-min Rain = 0
KREE 241045Z 17010KT 16/12 A2986 RMK A01 T01600120  RH  077%=      5-min Rain = 0
KREE 241046Z 16010KT 16/12 A2986 RMK A01 T01600121  RH  078%=      5-min Rain = 0
KREE 241047Z 17009KT 16/12 A2986 RMK A01 T01590121  RH  078%=      5-min Rain = 0
KREE 241048Z 17009KT 16/12 A2986 RMK A01 T01590121  RH  078%=      5-min Rain = 0
KREE 241049Z 17008KT 16/12 A2986 RMK A01 T01590121  RH  078%=      5-min Rain = 0
KREE 241050Z 16008KT 16/12 A2986 RMK A01 T01580121  RH  078%=      5-min Rain = 0
KREE 241051Z 17009KT 16/12 A2986 RMK A01 T01580121  RH  079%=      5-min Rain = 0
KREE 241052Z 17009KT 16/12 A2986 RMK A01 T01570121  RH  079%=      5-min Rain = 0
KREE 241053Z 17009KT 16/12 A2986 RMK A01 T01570121  RH  079%=      5-min Rain = 0
KREE 241054Z 17009KT 16/12 A2986 RMK A01 T01570121  RH  079%=      5-min Rain = 0
KREE 241055Z 17009KT 16/12 A2986 RMK A01 T01570122  RH  079%=      5-min Rain = 0
KREE 241056Z 17009KT 16/12 A2986 RMK A01 T01570122  RH  079%=      5-min Rain = 0
KREE 241057Z 17009KT 16/12 A2986 RMK A01 T01570122  RH  080%=      5-min Rain = 0
KREE 241058Z 17008KT 16/12 A2986 RMK A01 T01570122  RH  080%=      5-min Rain = 0
KREE 241059Z 17009KT 16/12 A2986 RMK A01 T01570122  RH  080%=      5-min Rain = 0
KREE 241100Z 17008KT 16/12 A2987 RMK A01 T01570122  RH  080%=      5-min Rain = 0
KREE 241101Z 17009KT 16/12 A2987 RMK A01 T01560122  RH  080%=      5-min Rain = 0
KREE 241102Z 17009KT 16/12 A2987 RMK A01 T01550122  RH  080%=      5-min Rain = 0
KREE 241103Z 17008KT 16/12 A2986 RMK A01 T01550122  RH  080%=      5-min Rain = 0
KREE 241104Z 17008KT 16/12 A2986 RMK A01 T01550122  RH  080%=      5-min Rain = 0
KREE 241105Z 18010KT 16/12 A2986 RMK A01 T01560121  RH  080%=      5-min Rain = 0
KREE 241106Z 17009KT 16/12 A2986 RMK A01 T01560121  RH  080%=      5-min Rain = 0
KREE 241107Z 17009KT 16/12 A2987 RMK A01 T01560121  RH  080%=      5-min Rain = 0
KREE 241108Z 17008KT 16/12 A2986 RMK A01 T01570121  RH  080%=      5-min Rain = 0
KREE 241109Z 17009KT 16/12 A2987 RMK A01 T01570121  RH  079%=      5-min Rain = 0
KREE 241110Z 17010KT 16/12 A2987 RMK A01 T01570121  RH  079%=      5-min Rain = 0
KREE 241111Z 17010KT 16/12 A2986 RMK A01 T01570121  RH  079%=      5-min Rain = 0
KREE 241112Z 17009KT 16/12 A2986 RMK A01 T01570122  RH  079%=      5-min Rain = 0
KREE 241113Z 17009KT 16/12 A2986 RMK A01 T01570122  RH  079%=      5-min Rain = 0
KREE 241114Z 18009KT 16/12 A2986 RMK A01 T01570122  RH  080%=      5-min Rain = 0
KREE 241115Z 18009KT 16/12 A2986 RMK A01 T01570122  RH  080%=      5-min Rain = 0
KREE 241116Z 18009KT 16/12 A2986 RMK A01 T01570122  RH  080%=      5-min Rain = 0
KREE 241117Z 18009KT 16/12 A2986 RMK A01 T01570122  RH  080%=      5-min Rain = 0
KREE 241118Z 18010KT 16/12 A2986 RMK A01 T01570122  RH  079%=      5-min Rain = 0
KREE 241119Z 18011KT 16/12 A2986 RMK A01 T01570121  RH  079%=      5-min Rain = 0
KREE 241120Z 18010KT 16/12 A2986 RMK A01 T01580121  RH  079%=      5-min Rain = 0
KREE 241121Z 18011KT 16/12 A2986 RMK A01 T01580121  RH  079%=      5-min Rain = 0
KREE 241122Z 18010KT 16/12 A2986 RMK A01 T01590122  RH  079%=      5-min Rain = 0
KREE 241123Z 18010KT 16/12 A2986 RMK A01 T01580122  RH  079%=      5-min Rain = 0
KREE 241124Z 18010KT 16/12 A2986 RMK A01 T01580122  RH  079%=      5-min Rain = 0
KREE 241125Z 18010KT 16/12 A2986 RMK A01 T01580122  RH  079%=      5-min Rain = 0
KREE 241126Z 18010KT 16/12 A2986 RMK A01 T01580122  RH  079%=      5-min Rain = 0
KREE 241127Z 17010KT 16/12 A2986 RMK A01 T01580122  RH  079%=      5-min Rain = 0
KREE 241128Z 18010KT 16/12 A2986 RMK A01 T01580122  RH  079%=      5-min Rain = 0
KREE 241129Z 18010KT 16/12 A2986 RMK A01 T01580122  RH  079%=      5-min Rain = 0
KREE 241130Z 17010KT 16/12 A2986 RMK A01 T01580122  RH  079%=      5-min Rain = 0
KREE 241131Z 17009KT 16/12 A2986 RMK A01 T01580122  RH  079%=      5-min Rain = 0
KREE 241132Z 18009KT 16/12 A2986 RMK A01 T01570122  RH  079%=      5-min Rain = 0
KREE 241133Z 17010KT 16/12 A2986 RMK A01 T01570122  RH  080%=      5-min Rain = 0
KREE 241134Z 17010KT 16/12 A2986 RMK A01 T01570122  RH  080%=      5-min Rain = 0
KREE 241135Z 17010KT 16/12 A2986 RMK A01 T01570122  RH  080%=      5-min Rain = 0
KREE 241136Z 17010KT 16/12 A2986 RMK A01 T01570122  RH  080%=      5-min Rain = 0
KREE 241137Z 17009KT 16/12 A2986 RMK A01 T01570122  RH  080%=      5-min Rain = 0
KREE 241138Z 17009KT 16/12 A2986 RMK A01 T01560122  RH  080%=      5-min Rain = 0
KREE 241139Z 17009KT 16/12 A2986 RMK A01 T01560122  RH  081%=      5-min Rain = 0
KREE 241140Z 17009KT 16/12 A2986 RMK A01 T01550122  RH  081%=      5-min Rain = 0
KREE 241141Z 17009KT 16/12 A2986 RMK A01 T01550122  RH  081%=      5-min Rain = 0
KREE 241142Z 17009KT 15/12 A2986 RMK A01 T01540123  RH  081%=      5-min Rain = 0
KREE 241143Z 17009KT 15/12 A2986 RMK A01 T01540123  RH  082%=      5-min Rain = 0
KREE 241144Z 16009KT 15/12 A2985 RMK A01 T01540123  RH  082%=      5-min Rain = 0
KREE 241145Z 16009KT 15/12 A2985 RMK A01 T01530123  RH  082%=      5-min Rain = 0
KREE 241146Z 16009KT 15/12 A2985 RMK A01 T01530123  RH  082%=      5-min Rain = 0
KREE 241147Z 16008KT 15/12 A2985 RMK A01 T01520123  RH  083%=      5-min Rain = 0
KREE 241148Z 17008KT 15/12 A2985 RMK A01 T01520123  RH  083%=      5-min Rain = 0
KREE 241149Z 17008KT 15/12 A2985 RMK A01 T01510123  RH  083%=      5-min Rain = 0
KREE 241150Z 17009KT 15/12 A2985 RMK A01 T01510123  RH  083%=      5-min Rain = 0
KREE 241151Z 17009KT 15/12 A2985 RMK A01 T01500123  RH  084%=      5-min Rain = 0
KREE 241152Z 17009KT 15/12 A2985 RMK A01 T01500123  RH  084%=      5-min Rain = 0
KREE 241153Z 17009KT 15/12 A2985 RMK A01 T01500123  RH  084%=      5-min Rain = 0
KREE 241154Z 17009KT 15/12 A2985 RMK A01 T01500123  RH  084%=      5-min Rain = 0
KREE 241155Z 17010KT 15/12 A2985 RMK A01 T01510123  RH  084%=      5-min Rain = 0
KREE 241156Z 17009KT 15/12 A2985 RMK A01 T01510123  RH  083%=      5-min Rain = 0
KREE 241157Z 17009KT 15/12 A2985 RMK A01 T01510123  RH  083%=      5-min Rain = 0
KREE 241158Z 17010KT 15/12 A2985 RMK A01 T01510123  RH  083%=      5-min Rain = 0
KREE 241159Z 16009KT 15/12 A2985 RMK A01 T01510123  RH  083%=      5-min Rain = 0
KREE 241200Z 16010KT 15/12 A2985 RMK A01 T01510123  RH  083%=      5-min Rain = 0
KREE 241201Z 16010KT 15/12 A2985 RMK A01 T01520123  RH  083%=      5-min Rain = 0
KREE 241202Z 16010KT 15/12 A2985 RMK A01 T01520123  RH  083%=      5-min Rain = 0
KREE 241203Z 16010KT 15/12 A2985 RMK A01 T01520123  RH  083%=      5-min Rain = 0
KREE 241204Z 16011KT 15/12 A2985 RMK A01 T01530124  RH  082%=      5-min Rain = 0
KREE 241205Z 16010KT 15/12 A2985 RMK A01 T01540124  RH  082%=      5-min Rain = 0
KREE 241206Z 16011KT 16/12 A2985 RMK A01 T01550123  RH  082%=      5-min Rain = 0
KREE 241207Z 17011KT 16/12 A2985 RMK A01 T01560123  RH  081%=      5-min Rain = 0
KREE 241208Z 17011KT 16/12 A2985 RMK A01 T01560123  RH  081%=      5-min Rain = 0
KREE 241209Z 17011KT 16/12 A2985 RMK A01 T01570123  RH  080%=      5-min Rain = 0
KREE 241210Z 17011KT 16/12 A2985 RMK A01 T01580123  RH  080%=      5-min Rain = 0
KREE 241211Z 17010KT 16/12 A2985 RMK A01 T01590124  RH  080%=      5-min Rain = 0
KREE 241212Z 17011KT 16/12 A2985 RMK A01 T01590124  RH  079%=      5-min Rain = 0
KREE 241213Z 17011KT 16/12 A2985 RMK A01 T01600123  RH  079%=      5-min Rain = 0
KREE 241214Z 16010KT 16/12 A2985 RMK A01 T01600124  RH  079%=      5-min Rain = 0
KREE 241215Z 17011KT 16/12 A2985 RMK A01 T01610124  RH  079%=      5-min Rain = 0
KREE 241216Z 17010KT 16/12 A2985 RMK A01 T01610124  RH  078%=      5-min Rain = 0
KREE 241217Z 17010KT 16/12 A2985 RMK A01 T01620124  RH  078%=      5-min Rain = 0
KREE 241218Z 17011KT 16/12 A2985 RMK A01 T01620124  RH  078%=      5-min Rain = 0
KREE 241219Z 17010KT 16/12 A2985 RMK A01 T01630124  RH  078%=      5-min Rain = 0
KREE 241220Z 17010KT 16/12 A2985 RMK A01 T01630124  RH  078%=      5-min Rain = 0
KREE 241221Z 17011KT 16/12 A2985 RMK A01 T01630124  RH  077%=      5-min Rain = 0
KREE 241222Z 17011KT 16/12 A2985 RMK A01 T01640124  RH  077%=      5-min Rain = 0
KREE 241223Z 17011KT 16/12 A2985 RMK A01 T01640124  RH  077%=      5-min Rain = 0
KREE 241224Z 17010KT 17/13 A2985 RMK A01 T01650125  RH  077%=      5-min Rain = 0
KREE 241225Z 17009KT 17/13 A2985 RMK A01 T01650125  RH  077%=      5-min Rain = 0
KREE 241226Z 17010KT 17/13 A2985 RMK A01 T01650125  RH  077%=      5-min Rain = 0
KREE 241227Z 17012KT 17/12 A2985 RMK A01 T01660124  RH  077%=      5-min Rain = 0
KREE 241228Z 17011KT 17/12 A2985 RMK A01 T01660124  RH  076%=      5-min Rain = 0
KREE 241229Z 17011KT 17/13 A2985 RMK A01 T01670125  RH  076%=      5-min Rain = 0
KREE 241230Z 17011KT 17/13 A2985 RMK A01 T01670125  RH  076%=      5-min Rain = 0
KREE 241231Z 17012KT 17/13 A2985 RMK A01 T01680125  RH  076%=      5-min Rain = 0
KREE 241232Z 17012KT 17/13 A2985 RMK A01 T01680125  RH  075%=      5-min Rain = 0
KREE 241233Z 17012KT 17/13 A2985 RMK A01 T01680125  RH  075%=      5-min Rain = 0
KREE 241234Z 17013KT 17/12 A2985 RMK A01 T01690124  RH  075%=      5-min Rain = 0
KREE 241235Z 17012KT 17/13 A2985 RMK A01 T01690125  RH  075%=      5-min Rain = 0
KREE 241236Z 17011KT 17/13 A2985 RMK A01 T01700125  RH  075%=      5-min Rain = 0
KREE 241237Z 17011KT 17/13 A2985 RMK A01 T01700125  RH  075%=      5-min Rain = 0
KREE 241238Z 17013KT 17/13 A2985 RMK A01 T01700125  RH  074%=      5-min Rain = 0
KREE 241239Z 17011KT 17/13 A2985 RMK A01 T01710125  RH  074%=      5-min Rain = 0
KREE 241240Z 17012KT 17/13 A2985 RMK A01 T01710126  RH  074%=      5-min Rain = 0
KREE 241241Z 17012KT 17/13 A2985 RMK A01 T01720125  RH  074%=      5-min Rain = 0
KREE 241242Z 17012KT 17/13 A2986 RMK A01 T01720126  RH  074%=      5-min Rain = 0
KREE 241243Z 17013KT 17/13 A2986 RMK A01 T01720125  RH  074%=      5-min Rain = 0
KREE 241244Z 17011KT 17/13 A2986 RMK A01 T01720125  RH  074%=      5-min Rain = 0
KREE 241245Z 17011KT 17/13 A2986 RMK A01 T01730126  RH  074%=      5-min Rain = 0
KREE 241246Z 17011KT 17/13 A2986 RMK A01 T01730126  RH  074%=      5-min Rain = 0
KREE 241247Z 17011KT 17/13 A2986 RMK A01 T01740126  RH  073%=      5-min Rain = 0
KREE 241248Z 17011KT 17/13 A2986 RMK A01 T01740126  RH  074%=      5-min Rain = 0
KREE 241249Z 17011KT 17/13 A2986 RMK A01 T01740127  RH  073%=      5-min Rain = 0
KREE 241250Z 17012KT 18/13 A2986 RMK A01 T01750126  RH  073%=      5-min Rain = 0
KREE 241251Z 17011KT 18/13 A2986 RMK A01 T01750127  RH  073%=      5-min Rain = 0
KREE 241252Z 17012KT 18/13 A2986 RMK A01 T01760127  RH  073%=      5-min Rain = 0
KREE 241253Z 17012KT 18/13 A2986 RMK A01 T01760127  RH  073%=      5-min Rain = 0
KREE 241254Z 17013KT 18/13 A2986 RMK A01 T01760127  RH  073%=      5-min Rain = 0
KREE 241255Z 17012KT 18/13 A2986 RMK A01 T01770127  RH  073%=      5-min Rain = 0
KREE 241256Z 17012KT 18/13 A2986 RMK A01 T01770127  RH  072%=      5-min Rain = 0
KREE 241257Z 17011KT 18/13 A2986 RMK A01 T01780127  RH  072%=      5-min Rain = 0
KREE 241258Z 17010KT 18/13 A2986 RMK A01 T01780128  RH  073%=      5-min Rain = 0
KREE 241259Z 17012KT 18/13 A2986 RMK A01 T01790128  RH  072%=      5-min Rain = 0
KREE 241300Z 17011KT 18/13 A2986 RMK A01 T01790127  RH  072%=      5-min Rain = 0
KREE 241301Z 18011KT 18/13 A2986 RMK A01 T01790128  RH  072%=      5-min Rain = 0
KREE 241302Z 17012KT 18/13 A2986 RMK A01 T01800127  RH  071%=      5-min Rain = 0
KREE 241303Z 17011KT 18/13 A2986 RMK A01 T01800129  RH  072%=      5-min Rain = 0
KREE 241304Z 17012KT 18/13 A2986 RMK A01 T01810129  RH  072%=      5-min Rain = 0
KREE 241305Z 18010KT 18/13 A2986 RMK A01 T01810128  RH  071%=      5-min Rain = 0
KREE 241306Z 17012KT 18/13 A2986 RMK A01 T01820129  RH  071%=      5-min Rain = 0
KREE 241307Z 17013KT 18/13 A2986 RMK A01 T01820128  RH  071%=      5-min Rain = 0
KREE 241308Z 17012KT 18/13 A2986 RMK A01 T01820128  RH  071%=      5-min Rain = 0
KREE 241309Z 17012KT 18/13 A2986 RMK A01 T01820129  RH  071%=      5-min Rain = 0
KREE 241310Z 18013KT 18/13 A2986 RMK A01 T01830129  RH  071%=      5-min Rain = 0
KREE 241311Z 17013KT 18/13 A2986 RMK A01 T01830128  RH  070%=      5-min Rain = 0
KREE 241312Z 18013KT 18/13 A2986 RMK A01 T01840129  RH  070%=      5-min Rain = 0
KREE 241313Z 17014KT 18/13 A2986 RMK A01 T01840128  RH  070%=      5-min Rain = 0
KREE 241314Z 18011KT 18/13 A2986 RMK A01 T01840129  RH  070%=      5-min Rain = 0
KREE 241315Z 17011KT 18/13 A2986 RMK A01 T01840130  RH  071%=      5-min Rain = 0
KREE 241316Z 18010KT 19/13 A2986 RMK A01 T01850130  RH  070%=      5-min Rain = 0
KREE 241317Z 18011KT 19/13 A2986 RMK A01 T01860131  RH  070%=      5-min Rain = 0
KREE 241318Z 17015KT 19/13 A2986 RMK A01 T01860129  RH  069%=      5-min Rain = 0
KREE 241319Z 18014KT 19/13 A2986 RMK A01 T01860129  RH  069%=      5-min Rain = 0
KREE 241320Z 18011KT 19/13 A2986 RMK A01 T01860130  RH  070%=      5-min Rain = 0
KREE 241321Z 18013KT 19/13 A2986 RMK A01 T01860130  RH  070%=      5-min Rain = 0
KREE 241322Z 17015KT 19/13 A2986 RMK A01 T01870130  RH  069%=      5-min Rain = 0
KREE 241323Z 17014KT 19/13 A2986 RMK A01 T01870129  RH  069%=      5-min Rain = 0
KREE 241324Z 18012G17KT 19/13 A2986 RMK A01 T01870130  RH  070%=      5-min Rain = 0
KREE 241325Z 17014KT 19/13 A2986 RMK A01 T01870130  RH  069%=      5-min Rain = 0
KREE 241326Z 17013KT 19/13 A2986 RMK A01 T01870130  RH  069%=      5-min Rain = 0
KREE 241327Z 18012G17KT 19/13 A2986 RMK A01 T01880132  RH  070%=      5-min Rain = 0
KREE 241328Z 18015KT 19/13 A2986 RMK A01 T01890130  RH  069%=      5-min Rain = 0
KREE 241329Z 18015KT 19/13 A2986 RMK A01 T01890130  RH  069%=      5-min Rain = 0
KREE 241330Z 17014KT 19/13 A2986 RMK A01 T01880131  RH  069%=      5-min Rain = 0
KREE 241331Z 18013KT 19/13 A2986 RMK A01 T01880130  RH  069%=      5-min Rain = 0
KREE 241332Z 18011KT 19/13 A2986 RMK A01 T01890132  RH  069%=      5-min Rain = 0
KREE 241333Z 18010KT 19/13 A2986 RMK A01 T01900133  RH  070%=      5-min Rain = 0
KREE 241334Z 18012KT 19/13 A2986 RMK A01 T01920133  RH  069%=      5-min Rain = 0
KREE 241335Z 18014KT 19/13 A2986 RMK A01 T01930132  RH  068%=      5-min Rain = 0
KREE 241336Z 18015KT 19/13 A2986 RMK A01 T01920131  RH  068%=      5-min Rain = 0
KREE 241337Z 18014KT 19/13 A2986 RMK A01 T01910130  RH  068%=      5-min Rain = 0
KREE 241338Z 18013KT 19/13 A2986 RMK A01 T01910132  RH  068%=      5-min Rain = 0
KREE 241339Z 18013KT 19/13 A2986 RMK A01 T01910131  RH  068%=      5-min Rain = 0
KREE 241340Z 18011KT 19/13 A2986 RMK A01 T01910131  RH  068%=      5-min Rain = 0
KREE 241341Z 19012KT 19/13 A2986 RMK A01 T01930133  RH  068%=      5-min Rain = 0
KREE 241342Z 18013G18KT 19/13 A2986 RMK A01 T01930132  RH  068%=      5-min Rain = 0
KREE 241343Z 18014KT 19/13 A2986 RMK A01 T01930131  RH  067%=      5-min Rain = 0
KREE 241344Z 18013KT 19/13 A2986 RMK A01 T01930131  RH  067%=      5-min Rain = 0
KREE 241345Z 18014KT 19/13 A2986 RMK A01 T01930132  RH  067%=      5-min Rain = 0
KREE 241346Z 18014KT 19/13 A2986 RMK A01 T01930131  RH  067%=      5-min Rain = 0
KREE 241347Z 18016KT 19/13 A2986 RMK A01 T01930131  RH  067%=      5-min Rain = 0
KREE 241348Z 18015KT 19/13 A2986 RMK A01 T01930131  RH  067%=      5-min Rain = 0
KREE 241349Z 19014KT 19/13 A2986 RMK A01 T01920132  RH  068%=      5-min Rain = 0
KREE 241350Z 18015KT 19/13 A2986 RMK A01 T01930131  RH  068%=      5-min Rain = 0
KREE 241351Z 18014KT 19/13 A2986 RMK A01 T01920131  RH  068%=      5-min Rain = 0
KREE 241352Z 18014KT 19/13 A2986 RMK A01 T01920132  RH  068%=      5-min Rain = 0
KREE 241353Z 18015KT 19/13 A2986 RMK A01 T01920133  RH  068%=      5-min Rain = 0
KREE 241354Z 18016KT 19/13 A2986 RMK A01 T01930131  RH  067%=      5-min Rain = 0
KREE 241355Z 18013G19KT 19/13 A2987 RMK A01 T01940133  RH  068%=      5-min Rain = 0
KREE 241356Z 18016KT 20/13 A2987 RMK A01 T01950132  RH  067%=      5-min Rain = 0
KREE 241357Z 18014KT 20/13 A2987 RMK A01 T01950133  RH  067%=      5-min Rain = 0
KREE 241358Z 19013KT 19/13 A2987 RMK A01 T01940133  RH  068%=      5-min Rain = 0
KREE 241359Z 19014KT 20/13 A2987 RMK A01 T01950134  RH  068%=      5-min Rain = 0
KREE 241400Z 19013KT 20/13 A2987 RMK A01 T01970134  RH  067%=      5-min Rain = 0
KREE 241401Z 19015KT 20/13 A2987 RMK A01 T01970133  RH  066%=      5-min Rain = 0
KREE 241402Z 18014KT 20/13 A2987 RMK A01 T01970134  RH  067%=      5-min Rain = 0
KREE 241403Z 17014KT 20/14 A2987 RMK A01 T01960135  RH  068%=      5-min Rain = 0
KREE 241404Z 18011KT 20/14 A2987 RMK A01 T01970136  RH  068%=      5-min Rain = 0
KREE 241405Z 18014KT 20/14 A2987 RMK A01 T01990135  RH  067%=      5-min Rain = 0
KREE 241406Z 18012KT 20/14 A2987 RMK A01 T01990135  RH  067%=      5-min Rain = 0
KREE 241407Z 18011KT 20/14 A2987 RMK A01 T01980136  RH  067%=      5-min Rain = 0
KREE 241408Z 18010KT 20/14 A2987 RMK A01 T01980138  RH  068%=      5-min Rain = 0
KREE 241409Z 17012KT 20/14 A2987 RMK A01 T02000138  RH  067%=      5-min Rain = 0
KREE 241410Z 18011KT 20/14 A2987 RMK A01 T02010137  RH  067%=      5-min Rain = 0
KREE 241411Z 18012KT 20/14 A2987 RMK A01 T02010137  RH  066%=      5-min Rain = 0
KREE 241412Z 18012KT 20/14 A2987 RMK A01 T02010137  RH  067%=      5-min Rain = 0
KREE 241413Z 18012KT 20/14 A2987 RMK A01 T02010136  RH  066%=      5-min Rain = 0
KREE 241414Z 19011KT 20/14 A2987 RMK A01 T02000138  RH  067%=      5-min Rain = 0
KREE 241415Z 19014KT 20/14 A2987 RMK A01 T02010137  RH  066%=      5-min Rain = 0
KREE 241416Z 19013KT 20/14 A2987 RMK A01 T02020137  RH  066%=      5-min Rain = 0
KREE 241417Z 19010KT 20/14 A2987 RMK A01 T02010138  RH  067%=      5-min Rain = 0
KREE 241418Z 18011KT 20/14 A2987 RMK A01 T02020139  RH  067%=      5-min Rain = 0
KREE 241419Z 18011KT 20/14 A2987 RMK A01 T02040139  RH  066%=      5-min Rain = 0
KREE 241420Z 19012KT 21/14 A2987 RMK A01 T02050139  RH  066%=      5-min Rain = 0
KREE 241421Z 19013KT 21/14 A2987 RMK A01 T02050138  RH  065%=      5-min Rain = 0
KREE 241422Z 18014KT 20/14 A2987 RMK A01 T02040138  RH  066%=      5-min Rain = 0
KREE 241423Z 17014KT 20/14 A2987 RMK A01 T02030138  RH  066%=      5-min Rain = 0
KREE 241424Z 17013KT 20/14 A2987 RMK A01 T02030139  RH  066%=      5-min Rain = 0
KREE 241425Z 17015KT 20/14 A2987 RMK A01 T02030139  RH  066%=      5-min Rain = 0
KREE 241426Z 17014KT 21/14 A2987 RMK A01 T02050138  RH  066%=      5-min Rain = 0
KREE 241427Z 17015KT 21/14 A2987 RMK A01 T02060138  RH  065%=      5-min Rain = 0
KREE 241428Z 16014KT 21/14 A2987 RMK A01 T02060139  RH  066%=      5-min Rain = 0
KREE 241429Z 18012KT 21/14 A2987 RMK A01 T02050140  RH  066%=      5-min Rain = 0
KREE 241430Z 17014KT 21/14 A2987 RMK A01 T02060139  RH  065%=      5-min Rain = 0
KREE 241431Z 17013KT 21/14 A2987 RMK A01 T02070140  RH  065%=      5-min Rain = 0
KREE 241432Z 18014KT 21/14 A2987 RMK A01 T02060140  RH  066%=      5-min Rain = 0
KREE 241433Z 17015KT 21/14 A2987 RMK A01 T02060141  RH  066%=      5-min Rain = 0
KREE 241434Z 17015G20KT 21/14 A2987 RMK A01 T02070140  RH  066%=      5-min Rain = 0
KREE 241435Z 17017KT 21/14 A2987 RMK A01 T02070139  RH  065%=      5-min Rain = 0
KREE 241436Z 17014G19KT 21/14 A2987 RMK A01 T02060139  RH  066%=      5-min Rain = 0
KREE 241437Z 16014KT 21/14 A2987 RMK A01 T02060141  RH  066%=      5-min Rain = 0
KREE 241438Z 17012KT 21/14 A2987 RMK A01 T02070142  RH  066%=      5-min Rain = 0
KREE 241439Z 18014KT 21/14 A2987 RMK A01 T02090142  RH  066%=      5-min Rain = 0
KREE 241440Z 18015KT 21/14 A2987 RMK A01 T02090140  RH  065%=      5-min Rain = 0
KREE 241441Z 17013G18KT 21/14 A2987 RMK A01 T02070141  RH  066%=      5-min Rain = 0
KREE 241442Z 17014KT 21/14 A2987 RMK A01 T02070141  RH  066%=      5-min Rain = 0
KREE 241443Z 17015KT 21/14 A2987 RMK A01 T02090141  RH  065%=      5-min Rain = 0
KREE 241444Z 18015KT 21/14 A2987 RMK A01 T02090141  RH  065%=      5-min Rain = 0
KREE 241445Z 18014KT 21/14 A2987 RMK A01 T02090140  RH  065%=      5-min Rain = 0
KREE 241446Z 18015KT 21/14 A2987 RMK A01 T02090140  RH  065%=      5-min Rain = 0
KREE 241447Z 17017KT 21/14 A2987 RMK A01 T02080140  RH  065%=      5-min Rain = 0
KREE 241448Z 18016KT 21/14 A2987 RMK A01 T02080140  RH  065%=      5-min Rain = 0
KREE 241449Z 17013KT 21/14 A2987 RMK A01 T02080142  RH  066%=      5-min Rain = 0
KREE 241450Z 17013G18KT 21/14 A2987 RMK A01 T02090143  RH  066%=      5-min Rain = 0
KREE 241451Z 18013KT 21/14 A2987 RMK A01 T02110141  RH  064%=      5-min Rain = 0
KREE 241452Z 18014KT 21/14 A2986 RMK A01 T02110143  RH  065%=      5-min Rain = 0
KREE 241453Z 16015KT 21/14 A2986 RMK A01 T02120143  RH  065%=      5-min Rain = 0
KREE 241454Z 17016KT 21/14 A2986 RMK A01 T02110142  RH  065%=      5-min Rain = 0
KREE 241455Z 16014G19KT 21/14 A2986 RMK A01 T02090143  RH  066%=      5-min Rain = 0
KREE 241456Z 16016KT 21/14 A2986 RMK A01 T02090142  RH  065%=      5-min Rain = 0
KREE 241457Z 16015KT 21/14 A2986 RMK A01 T02090142  RH  066%=      5-min Rain = 0
KREE 241458Z 17016KT 21/14 A2986 RMK A01 T02080142  RH  066%=      5-min Rain = 0
KREE 241459Z 17015KT 21/14 A2986 RMK A01 T02080142  RH  066%=      5-min Rain = 0
KREE 241500Z 17016KT 21/14 A2986 RMK A01 T02080143  RH  066%=      5-min Rain = 0
KREE 241501Z 17014G19KT 21/14 A2986 RMK A01 T02090143  RH  066%=      5-min Rain = 0
KREE 241502Z 18015KT 21/14 A2986 RMK A01 T02100143  RH  066%=      5-min Rain = 0
KREE 241503Z 17016KT 21/14 A2986 RMK A01 T02110144  RH  066%=      5-min Rain = 0
KREE 241504Z 17015KT 21/14 A2986 RMK A01 T02110143  RH  065%=      5-min Rain = 0
KREE 241505Z 17014G20KT 21/14 A2986 RMK A01 T02110144  RH  065%=      5-min Rain = 0
KREE 241506Z 18013KT 21/14 A2986 RMK A01 T02120144  RH  065%=      5-min Rain = 0
KREE 241507Z 18014G20KT 21/15 A2986 RMK A01 T02130145  RH  065%=      5-min Rain = 0
KREE 241508Z 19015KT 21/14 A2986 RMK A01 T02130143  RH  064%=      5-min Rain = 0
KREE 241509Z 18012G17KT 21/15 A2986 RMK A01 T02130145  RH  065%=      5-min Rain = 0
KREE 241510Z 17015KT 21/14 A2986 RMK A01 T02140144  RH  064%=      5-min Rain = 0
KREE 241511Z 18014KT 21/14 A2986 RMK A01 T02140144  RH  064%=      5-min Rain = 0
KREE 241512Z 19014KT 21/14 A2986 RMK A01 T02120144  RH  065%=      5-min Rain = 0
KREE 241513Z 18015KT 21/15 A2986 RMK A01 T02110145  RH  066%=      5-min Rain = 0
KREE 241514Z 18015KT 21/14 A2986 RMK A01 T02110144  RH  065%=      5-min Rain = 0
KREE 241515Z 18013KT 21/14 A2986 RMK A01 T02120144  RH  065%=      5-min Rain = 0
KREE 241516Z 19015KT 21/15 A2986 RMK A01 T02120145  RH  066%=      5-min Rain = 0
KREE 241517Z 18014G19KT 21/15 A2986 RMK A01 T02120145  RH  065%=      5-min Rain = 0
KREE 241518Z 18015KT 21/15 A2986 RMK A01 T02120145  RH  066%=      5-min Rain = 0
KREE 241519Z 19014KT 21/15 A2986 RMK A01 T02130147  RH  066%=      5-min Rain = 0
KREE 241520Z 19017KT 22/14 A2986 RMK A01 T02150144  RH  064%=      5-min Rain = 0
KREE 241521Z 18014KT 22/14 A2986 RMK A01 T02160144  RH  064%=      5-min Rain = 0
KREE 241522Z 18013KT 22/15 A2986 RMK A01 T02160146  RH  064%=      5-min Rain = 0
KREE 241523Z 18013KT 22/15 A2986 RMK A01 T02170147  RH  064%=      5-min Rain = 0
KREE 241524Z 19014G19KT 22/15 A2986 RMK A01 T02170148  RH  065%=      5-min Rain = 0
KREE 241525Z 20014KT 22/15 A2986 RMK A01 T02150147  RH  065%=      5-min Rain = 0
KREE 241526Z 20015G20KT 21/15 A2986 RMK A01 T02140147  RH  065%=      5-min Rain = 0
KREE 241527Z 20014KT 21/15 A2986 RMK A01 T02140146  RH  065%=      5-min Rain = 0
KREE 241528Z 19013KT 22/15 A2986 RMK A01 T02150147  RH  065%=      5-min Rain = 0
KREE 241529Z 20012KT 22/15 A2986 RMK A01 T02160148  RH  065%=      5-min Rain = 0
KREE 241530Z 19015G21KT 22/15 A2986 RMK A01 T02160148  RH  065%=      5-min Rain = 0
KREE 241531Z 20013KT 22/15 A2986 RMK A01 T02170148  RH  065%=      5-min Rain = 0
KREE 241532Z 18015G20KT 22/15 A2985 RMK A01 T02170149  RH  065%=      5-min Rain = 0
KREE 241533Z 19016G21KT 22/15 A2985 RMK A01 T02180149  RH  065%=      5-min Rain = 0
KREE 241534Z 19015KT 22/15 A2985 RMK A01 T02170149  RH  065%=      5-min Rain = 0
KREE 241535Z 19015KT 22/15 A2985 RMK A01 T02160148  RH  065%=      5-min Rain = 0
KREE 241536Z 18014KT 22/15 A2985 RMK A01 T02170148  RH  065%=      5-min Rain = 0
KREE 241537Z 18013KT 22/15 A2985 RMK A01 T02170149  RH  065%=      5-min Rain = 0
KREE 241538Z 18013KT 22/15 A2985 RMK A01 T02170149  RH  065%=      5-min Rain = 0
KREE 241539Z 19017KT 22/15 A2985 RMK A01 T02180149  RH  065%=      5-min Rain = 0
KREE 241540Z 19015KT 22/15 A2985 RMK A01 T02190147  RH  064%=      5-min Rain = 0
KREE 241541Z 18013KT 22/15 A2985 RMK A01 T02180149  RH  065%=      5-min Rain = 0
KREE 241542Z 19014G20KT 22/15 A2985 RMK A01 T02200150  RH  065%=      5-min Rain = 0
KREE 241543Z 19012KT 22/15 A2985 RMK A01 T02220152  RH  064%=      5-min Rain = 0
KREE 241544Z 21014KT 22/15 A2985 RMK A01 T02230150  RH  063%=      5-min Rain = 0
KREE 241545Z 20012KT 22/15 A2985 RMK A01 T02210148  RH  063%=      5-min Rain = 0
KREE 241546Z 20011KT 22/15 A2985 RMK A01 T02200151  RH  065%=      5-min Rain = 0
KREE 241547Z 18015G21KT 22/15 A2985 RMK A01 T02240152  RH  064%=      5-min Rain = 0
KREE 241548Z 19016KT 23/15 A2985 RMK A01 T02260150  RH  062%=      5-min Rain = 0
KREE 241549Z 20014KT 23/15 A2985 RMK A01 T02260151  RH  062%=      5-min Rain = 0
KREE 241550Z 20014KT 23/15 A2985 RMK A01 T02260151  RH  062%=      5-min Rain = 0
KREE 241551Z 19014KT 22/15 A2985 RMK A01 T02240150  RH  063%=      5-min Rain = 0
KREE 241552Z 21012KT 22/15 A2985 RMK A01 T02230151  RH  064%=      5-min Rain = 0
KREE 241553Z 20016KT 22/15 A2985 RMK A01 T02240153  RH  064%=      5-min Rain = 0
KREE 241554Z 20013KT 23/15 A2985 RMK A01 T02260152  RH  063%=      5-min Rain = 0
KREE 241555Z 19012KT 23/15 A2985 RMK A01 T02270153  RH  063%=      5-min Rain = 0
KREE 241556Z 18014KT 23/15 A2985 RMK A01 T02290153  RH  062%=      5-min Rain = 0
KREE 241557Z 19016KT 23/15 A2985 RMK A01 T02310153  RH  062%=      5-min Rain = 0
KREE 241558Z 19015KT 23/15 A2985 RMK A01 T02280153  RH  062%=      5-min Rain = 0
KREE 241559Z 18013KT 23/15 A2985 RMK A01 T02270154  RH  063%=      5-min Rain = 0
KREE 241600Z 18014G19KT 23/15 A2985 RMK A01 T02280153  RH  063%=      5-min Rain = 0
KREE 241601Z 19016KT 23/15 A2984 RMK A01 T02270153  RH  063%=      5-min Rain = 0
KREE 241602Z 19015KT 23/15 A2985 RMK A01 T02280154  RH  063%=      5-min Rain = 0
KREE 241603Z 18012G18KT 23/15 A2985 RMK A01 T02310153  RH  061%=      5-min Rain = 0
KREE 241604Z 20016KT 23/15 A2985 RMK A01 T02330150  RH  059%=      5-min Rain = 0
KREE 241605Z 20012KT 23/15 A2985 RMK A01 T02330151  RH  060%=      5-min Rain = 0
KREE 241606Z 19013KT 24/15 A2985 RMK A01 T02360153  RH  059%=      5-min Rain = 0
KREE 241607Z 19010KT 24/15 A2985 RMK A01 T02390152  RH  058%=      5-min Rain = 0
KREE 241608Z 19013G18KT 24/15 A2985 RMK A01 T02390152  RH  058%=      5-min Rain = 0
KREE 241609Z 20014KT 24/15 A2985 RMK A01 T02390151  RH  058%=      5-min Rain = 0
KREE 241610Z 20011KT 24/15 A2985 RMK A01 T02370149  RH  058%=      5-min Rain = 0
KREE 241611Z 19014KT 23/15 A2985 RMK A01 T02340150  RH  059%=      5-min Rain = 0
KREE 241612Z 19011KT 23/15 A2985 RMK A01 T02330150  RH  060%=      5-min Rain = 0
KREE 241613Z 19013KT 23/15 A2985 RMK A01 T02340151  RH  060%=      5-min Rain = 0
KREE 241614Z 20014KT 24/15 A2985 RMK A01 T02390150  RH  057%=      5-min Rain = 0
KREE 241615Z 21011KT 24/15 A2985 RMK A01 T02370151  RH  058%=      5-min Rain = 0
KREE 241616Z 18013G18KT 24/15 A2985 RMK A01 T02370152  RH  059%=      5-min Rain = 0
KREE 241617Z 19015KT 24/15 A2985 RMK A01 T02390151  RH  058%=      5-min Rain = 0
KREE 241618Z 20014KT 24/15 A2985 RMK A01 T02390151  RH  058%=      5-min Rain = 0
KREE 241619Z 20012KT 24/15 A2985 RMK A01 T02370150  RH  058%=      5-min Rain = 0
KREE 241620Z 19012G17KT 24/15 A2985 RMK A01 T02360151  RH  059%=      5-min Rain = 0
KREE 241621Z 21013KT 24/15 A2985 RMK A01 T02370148  RH  058%=      5-min Rain = 0
KREE 241622Z 20010G16KT 24/15 A2985 RMK A01 T02360150  RH  058%=      5-min Rain = 0
KREE 241623Z 18015G20KT 24/15 A2985 RMK A01 T02360150  RH  058%=      5-min Rain = 0
KREE 241624Z 18014KT 24/15 A2985 RMK A01 T02370149  RH  058%=      5-min Rain = 0
KREE 241625Z 19010KT 24/15 A2985 RMK A01 T02350151  RH  059%=      5-min Rain = 0
KREE 241626Z 18015G20KT 24/15 A2984 RMK A01 T02360151  RH  059%=      5-min Rain = 0
KREE 241627Z 19016KT 24/15 A2984 RMK A01 T02390149  RH  057%=      5-min Rain = 0
KREE 241628Z 18013KT 24/15 A2985 RMK A01 T02390150  RH  057%=      5-min Rain = 0
KREE 241629Z 18013G19KT 24/15 A2984 RMK A01 T02390150  RH  058%=      5-min Rain = 0
KREE 241630Z 18016KT 24/15 A2984 RMK A01 T02390148  RH  057%=      5-min Rain = 0
KREE 241631Z 19015KT 24/15 A2985 RMK A01 T02400148  RH  056%=      5-min Rain = 0
KREE 241632Z 18013KT 24/15 A2985 RMK A01 T02400148  RH  056%=      5-min Rain = 0
KREE 241633Z 18013KT 24/15 A2985 RMK A01 T02400150  RH  057%=      5-min Rain = 0
KREE 241634Z 17012KT 24/15 A2985 RMK A01 T02400151  RH  058%=      5-min Rain = 0
KREE 241635Z 18011KT 24/15 A2985 RMK A01 T02390151  RH  058%=      5-min Rain = 0
KREE 241636Z 20013KT 24/15 A2985 RMK A01 T02400148  RH  056%=      5-min Rain = 0
KREE 241637Z 20011KT 24/15 A2985 RMK A01 T02410149  RH  057%=      5-min Rain = 0
KREE 241638Z 17013KT 24/15 A2985 RMK A01 T02420154  RH  058%=      5-min Rain = 0
KREE 241639Z 18012KT 24/15 A2985 RMK A01 T02440154  RH  057%=      5-min Rain = 0
KREE 241640Z 17013KT 25/15 A2985 RMK A01 T02450152  RH  056%=      5-min Rain = 0
KREE 241641Z 19015KT 24/15 A2984 RMK A01 T02440151  RH  056%=      5-min Rain = 0
KREE 241642Z 18014KT 24/15 A2984 RMK A01 T02440150  RH  056%=      5-min Rain = 0
KREE 241643Z 18013KT 25/15 A2984 RMK A01 T02450150  RH  055%=      5-min Rain = 0
KREE 241644Z 21011G17KT 25/15 A2984 RMK A01 T02450151  RH  056%=      5-min Rain = 0
KREE 241645Z 18011KT 24/15 A2984 RMK A01 T02430152  RH  057%=      5-min Rain = 0
KREE 241646Z 19013KT 24/15 A2984 RMK A01 T02430151  RH  056%=      5-min Rain = 0
KREE 241647Z 19011KT 24/15 A2984 RMK A01 T02440151  RH  056%=      5-min Rain = 0
KREE 241648Z 17010G15KT 24/15 A2984 RMK A01 T02440154  RH  057%=      5-min Rain = 0
KREE 241649Z 17014G19KT 25/15 A2984 RMK A01 T02470152  RH  056%=      5-min Rain = 0
KREE 241650Z 18013KT 25/15 A2984 RMK A01 T02480150  RH  054%=      5-min Rain = 0
KREE 241651Z 18011KT 25/15 A2984 RMK A01 T02480151  RH  055%=      5-min Rain = 0
KREE 241652Z 18011KT 25/15 A2984 RMK A01 T02480153  RH  055%=      5-min Rain = 0
KREE 241653Z 19013KT 25/15 A2984 RMK A01 T02500153  RH  055%=      5-min Rain = 0
KREE 241654Z 18011KT 25/15 A2984 RMK A01 T02490150  RH  054%=      5-min Rain = 0
KREE 241655Z 18008KT 25/15 A2984 RMK A01 T02460151  RH  055%=      5-min Rain = 0
KREE 241656Z 18010KT 25/15 A2984 RMK A01 T02480152  RH  055%=      5-min Rain = 0
KREE 241657Z 19012KT 25/15 A2984 RMK A01 T02500151  RH  054%=      5-min Rain = 0
KREE 241658Z 18014KT 25/15 A2984 RMK A01 T02510152  RH  054%=      5-min Rain = 0
KREE 241659Z 17011KT 25/15 A2984 RMK A01 T02520151  RH  054%=      5-min Rain = 0
KREE 241700Z 17010KT 25/15 A2984 RMK A01 T02520153  RH  054%=      5-min Rain = 0
KREE 241701Z 18013KT 25/15 A2984 RMK A01 T02530153  RH  054%=      5-min Rain = 0
KREE 241702Z 19011KT 25/15 A2985 RMK A01 T02510152  RH  054%=      5-min Rain = 0
KREE 241703Z 16009KT 25/15 A2985 RMK A01 T02500153  RH  055%=      5-min Rain = 0
KREE 241704Z 16011KT 25/16 A2985 RMK A01 T02520155  RH  055%=      5-min Rain = 0
KREE 241705Z 16013KT 25/15 A2984 RMK A01 T02540154  RH  054%=      5-min Rain = 0
KREE 241706Z 16013KT 26/15 A2985 RMK A01 T02550154  RH  053%=      5-min Rain = 0
KREE 241707Z 15011KT 26/15 A2985 RMK A01 T02560154  RH  053%=      5-min Rain = 0
KREE 241708Z 17011KT 26/16 A2985 RMK A01 T02550155  RH  054%=      5-min Rain = 0
KREE 241709Z 18013KT 26/15 A2984 RMK A01 T02560154  RH  053%=      5-min Rain = 0
KREE 241710Z 18009KT 26/15 A2985 RMK A01 T02580152  RH  052%=      5-min Rain = 0
KREE 241711Z 17010G19KT 26/16 A2984 RMK A01 T02550155  RH  054%=      5-min Rain = 0
KREE 241712Z 18012KT 26/16 A2984 RMK A01 T02580157  RH  054%=      5-min Rain = 0
KREE 241713Z 18013KT 26/16 A2984 RMK A01 T02620155  RH  052%=      5-min Rain = 0
KREE 241714Z 19011KT 26/15 A2984 RMK A01 T02630154  RH  051%=      5-min Rain = 0
KREE 241715Z 17012G17KT 26/15 A2984 RMK A01 T02600153  RH  052%=      5-min Rain = 0
KREE 241716Z 16009KT 26/15 A2984 RMK A01 T02570153  RH  053%=      5-min Rain = 0
KREE 241717Z 17010G15KT 26/15 A2984 RMK A01 T02590152  RH  052%=      5-min Rain = 0
KREE 241718Z 16011KT 26/15 A2984 RMK A01 T02570152  RH  052%=      5-min Rain = 0
KREE 241719Z 16008G13KT 26/15 A2984 RMK A01 T02560152  RH  053%=      5-min Rain = 0
KREE 241720Z 17013G18KT 26/16 A2984 RMK A01 T02560155  RH  054%=      5-min Rain = 0
KREE 241721Z 19012KT 26/15 A2984 RMK A01 T02590154  RH  052%=      5-min Rain = 0
KREE 241722Z 17012KT 26/15 A2984 RMK A01 T02590154  RH  052%=      5-min Rain = 0
KREE 241723Z 16009KT 26/15 A2984 RMK A01 T02570154  RH  053%=      5-min Rain = 0
KREE 241724Z 15008G13KT 26/15 A2984 RMK A01 T02580154  RH  052%=      5-min Rain = 0
KREE 241725Z 16013KT 26/15 A2984 RMK A01 T02600154  RH  052%=      5-min Rain = 0
KREE 241726Z 15012G17KT 26/16 A2984 RMK A01 T02600156  RH  052%=      5-min Rain = 0
KREE 241727Z 17014KT 26/15 A2984 RMK A01 T02610154  RH  052%=      5-min Rain = 0
KREE 241728Z 16013KT 26/16 A2984 RMK A01 T02610156  RH  052%=      5-min Rain = 0
KREE 241729Z 17011KT 26/16 A2984 RMK A01 T02620157  RH  052%=      5-min Rain = 0
KREE 241730Z 18012KT 26/15 A2984 RMK A01 T02640149  RH  049%=      5-min Rain = 0
KREE 241731Z 18009KT 27/15 A2984 RMK A01 T02660150  RH  049%=      5-min Rain = 0
KREE 241732Z 18009KT 27/15 A2984 RMK A01 T02650152  RH  050%=      5-min Rain = 0
KREE 241733Z 18012G17KT 26/15 A2984 RMK A01 T02640153  RH  050%=      5-min Rain = 0
KREE 241734Z 16010KT 27/15 A2984 RMK A01 T02650153  RH  050%=      5-min Rain = 0
KREE 241735Z 17013KT 27/15 A2984 RMK A01 T02660153  RH  050%=      5-min Rain = 0
KREE 241736Z 17011KT 27/15 A2984 RMK A01 T02650153  RH  050%=      5-min Rain = 0
KREE 241737Z 17014KT 27/15 A2984 RMK A01 T02660151  RH  049%=      5-min Rain = 0
KREE 241738Z 17011KT 27/15 A2984 RMK A01 T02650151  RH  049%=      5-min Rain = 0
KREE 241739Z 18012KT 27/15 A2984 RMK A01 T02660148  RH  048%=      5-min Rain = 0
KREE 241740Z 17007KT 27/15 A2985 RMK A01 T02650147  RH  048%=      5-min Rain = 0
KREE 241741Z 17011G20KT 26/15 A2984 RMK A01 T02630150  RH  050%=      5-min Rain = 0
KREE 241742Z 15012KT 27/15 A2984 RMK A01 T02650151  RH  049%=      5-min Rain = 0
KREE 241743Z 15012KT 27/15 A2984 RMK A01 T02680151  RH  049%=      5-min Rain = 0
KREE 241744Z 14009KT 27/15 A2984 RMK A01 T02690149  RH  048%=      5-min Rain = 0
KREE 241745Z 14010KT 27/15 A2984 RMK A01 T02660150  RH  049%=      5-min Rain = 0
KREE 241746Z 16010KT 27/15 A2984 RMK A01 T02670152  RH  049%=      5-min Rain = 0
KREE 241747Z 17010KT 27/15 A2984 RMK A01 T02710151  RH  048%=      5-min Rain = 0
KREE 241748Z 17011KT 27/15 A2984 RMK A01 T02710148  RH  047%=      5-min Rain = 0
KREE 241749Z 17009KT 27/15 A2984 RMK A01 T02680148  RH  048%=      5-min Rain = 0
KREE 241750Z 16011KT 27/15 A2984 RMK A01 T02650148  RH  049%=      5-min Rain = 0
KREE 241751Z 16011KT 27/15 A2984 RMK A01 T02650150  RH  049%=      5-min Rain = 0
KREE 241752Z 17010KT 27/15 A2984 RMK A01 T02670147  RH  048%=      5-min Rain = 0
KREE 241753Z 15012KT 27/15 A2984 RMK A01 T02670149  RH  048%=      5-min Rain = 0
KREE 241754Z 14008KT 27/15 A2984 RMK A01 T02670149  RH  048%=      5-min Rain = 0
KREE 241755Z 16008KT 27/15 A2984 RMK A01 T02690148  RH  048%=      5-min Rain = 0
KREE 241756Z 17013KT 27/15 A2984 RMK A01 T02700148  RH  047%=      5-min Rain = 0
KREE 241757Z 17013KT 27/15 A2984 RMK A01 T02690148  RH  047%=      5-min Rain = 0
KREE 241758Z 17011KT 27/15 A2984 RMK A01 T02690149  RH  048%=      5-min Rain = 0
KREE 241759Z 17009KT 27/15 A2984 RMK A01 T02700148  RH  047%=      5-min Rain = 0
KREE 241800Z 17010KT 27/15 A2984 RMK A01 T02680150  RH  048%=      5-min Rain = 0
KREE 241801Z 17009G14KT 27/15 A2984 RMK A01 T02680149  RH  048%=      5-min Rain = 0
KREE 241802Z 16009KT 27/15 A2984 RMK A01 T02680149  RH  048%=      5-min Rain = 0
KREE 241803Z 16010G15KT 27/15 A2984 RMK A01 T02680151  RH  049%=      5-min Rain = 0
KREE 241804Z 17012KT 27/15 A2984 RMK A01 T02740147  RH  046%=      5-min Rain = 0
KREE 241805Z 16010KT 28/15 A2984 RMK A01 T02750146  RH  045%=      5-min Rain = 0
KREE 241806Z 15009KT 27/15 A2984 RMK A01 T02730146  RH  046%=      5-min Rain = 0
KREE 241807Z 17008KT 27/15 A2984 RMK A01 T02720146  RH  046%=      5-min Rain = 0
KREE 241808Z 15008KT 27/15 A2984 RMK A01 T02700147  RH  047%=      5-min Rain = 0
KREE 241809Z 14010KT 27/15 A2983 RMK A01 T02700148  RH  047%=      5-min Rain = 0
KREE 241810Z 15012G17KT 27/15 A2983 RMK A01 T02730146  RH  046%=      5-min Rain = 0
KREE 241811Z 17009KT 27/15 A2983 RMK A01 T02730148  RH  046%=      5-min Rain = 0
KREE 241812Z 15010G15KT 28/15 A2983 RMK A01 T02760151  RH  046%=      5-min Rain = 0
KREE 241813Z 15013KT 28/15 A2983 RMK A01 T02780151  RH  046%=      5-min Rain = 0
KREE 241814Z 16013KT 28/15 A2983 RMK A01 T02800150  RH  045%=      5-min Rain = 0
KREE 241815Z 16011KT 28/15 A2983 RMK A01 T02790150  RH  045%=      5-min Rain = 0
KREE 241816Z 17010KT 28/15 A2983 RMK A01 T02760150  RH  046%=      5-min Rain = 0
KREE 241817Z 15012G17KT 27/15 A2983 RMK A01 T02740149  RH  046%=      5-min Rain = 0
KREE 241818Z 14012KT 27/15 A2983 RMK A01 T02730150  RH  047%=      5-min Rain = 0
KREE 241819Z 16009KT 28/15 A2983 RMK A01 T02750150  RH  046%=      5-min Rain = 0
KREE 241820Z 16009KT 28/15 A2983 RMK A01 T02750150  RH  046%=      5-min Rain = 0
KREE 241821Z 14009KT 27/15 A2983 RMK A01 T02730151  RH  047%=      5-min Rain = 0
KREE 241822Z 16010G17KT 27/15 A2983 RMK A01 T02710151  RH  048%=      5-min Rain = 0
KREE 241823Z 13012KT 27/15 A2983 RMK A01 T02710150  RH  048%=      5-min Rain = 0
KREE 241824Z 15012KT 27/15 A2983 RMK A01 T02740150  RH  047%=      5-min Rain = 0
KREE 241825Z 14010KT 28/15 A2983 RMK A01 T02750150  RH  046%=      5-min Rain = 0
KREE 241826Z 17008KT 28/15 A2983 RMK A01 T02750152  RH  047%=      5-min Rain = 0
KREE 241827Z 19008G13KT 28/14 A2983 RMK A01 T02760143  RH  044%=      5-min Rain = 0
KREE 241828Z 18012G17KT 28/15 A2983 RMK A01 T02760145  RH  044%=      5-min Rain = 0
KREE 241829Z 16010KT 28/14 A2983 RMK A01 T02780143  RH  044%=      5-min Rain = 0
KREE 241830Z 17011KT 28/14 A2983 RMK A01 T02770144  RH  044%=      5-min Rain = 0
KREE 241831Z 20010KT 28/14 A2983 RMK A01 T02780143  RH  044%=      5-min Rain = 0
KREE 241832Z 19008KT 28/14 A2983 RMK A01 T02780144  RH  044%=      5-min Rain = 0
KREE 241833Z 17010KT 28/15 A2983 RMK A01 T02790151  RH  046%=      5-min Rain = 0
KREE 241834Z 16013KT 28/15 A2983 RMK A01 T02820149  RH  044%=      5-min Rain = 0
KREE 241835Z 17013KT 28/15 A2983 RMK A01 T02820148  RH  044%=      5-min Rain = 0
KREE 241836Z 18010KT 28/15 A2983 RMK A01 T02810148  RH  044%=      5-min Rain = 0
KREE 241837Z 16008KT 28/15 A2983 RMK A01 T02810149  RH  044%=      5-min Rain = 0
KREE 241838Z 17011KT 28/15 A2983 RMK A01 T02820147  RH  044%=      5-min Rain = 0
KREE 241839Z 16012KT 28/15 A2983 RMK A01 T02820148  RH  044%=      5-min Rain = 0
KREE 241840Z 15011KT 28/14 A2983 RMK A01 T02830143  RH  042%=      5-min Rain = 0
KREE 241841Z 14011KT 28/15 A2983 RMK A01 T02800146  RH  044%=      5-min Rain = 0
KREE 241842Z 14012KT 28/15 A2983 RMK A01 T02800148  RH  045%=      5-min Rain = 0
KREE 241843Z 15010KT 28/14 A2982 RMK A01 T02810144  RH  043%=      5-min Rain = 0
KREE 241844Z 14009KT 28/14 A2983 RMK A01 T02810144  RH  043%=      5-min Rain = 0
KREE 241845Z 14009KT 28/15 A2982 RMK A01 T02800146  RH  044%=      5-min Rain = 0
KREE 241846Z 15010KT 28/15 A2982 RMK A01 T02800148  RH  045%=      5-min Rain = 0
KREE 241847Z 15009KT 28/14 A2982 RMK A01 T02800144  RH  043%=      5-min Rain = 0
KREE 241848Z 15014G19KT 28/15 A2982 RMK A01 T02800154  RH  046%=      5-min Rain = 0
KREE 241849Z 16012KT 28/15 A2982 RMK A01 T02820151  RH  045%=      5-min Rain = 0
KREE 241850Z 16010KT 28/15 A2982 RMK A01 T02840151  RH  044%=      5-min Rain = 0
KREE 241851Z 16010KT 29/15 A2982 RMK A01 T02850151  RH  044%=      5-min Rain = 0
KREE 241852Z 17009KT 28/15 A2982 RMK A01 T02840150  RH  044%=      5-min Rain = 0
KREE 241853Z 16008KT 28/15 A2982 RMK A01 T02810148  RH  044%=      5-min Rain = 0
KREE 241854Z 13009KT 28/15 A2982 RMK A01 T02770150  RH  046%=      5-min Rain = 0
KREE 241855Z 13013KT 28/15 A2982 RMK A01 T02770151  RH  046%=      5-min Rain = 0
KREE 241856Z 14012KT 28/15 A2982 RMK A01 T02780150  RH  046%=      5-min Rain = 0
KREE 241857Z 13011KT 28/15 A2982 RMK A01 T02790149  RH  045%=      5-min Rain = 0
KREE 241858Z 15014KT 28/15 A2982 RMK A01 T02790151  RH  046%=      5-min Rain = 0
KREE 241859Z 18011KT 29/15 A2982 RMK A01 T02850147  RH  043%=      5-min Rain = 0
KREE 241900Z 19011KT 29/14 A2982 RMK A01 T02880142  RH  041%=      5-min Rain = 0
KREE 241901Z 17008KT 29/14 A2982 RMK A01 T02890143  RH  041%=      5-min Rain = 0
KREE 241902Z 15006KT 29/15 A2982 RMK A01 T02930148  RH  041%=      5-min Rain = 0
KREE 241903Z 17013G18KT 29/16 A2982 RMK A01 T02910155  RH  044%=      5-min Rain = 0
KREE 241904Z 14015KT 29/16 A2982 RMK A01 T02900156  RH  044%=      5-min Rain = 0
KREE 241905Z 14010KT 29/16 A2982 RMK A01 T02880155  RH  044%=      5-min Rain = 0
KREE 241906Z 16010KT 29/16 A2982 RMK A01 T02850156  RH  046%=      5-min Rain = 0
KREE 241907Z 14012KT 29/16 A2982 RMK A01 T02850155  RH  045%=      5-min Rain = 0
KREE 241908Z 13011KT 29/15 A2982 RMK A01 T02850154  RH  045%=      5-min Rain = 0
KREE 241909Z 16012G17KT 29/15 A2981 RMK A01 T02850148  RH  043%=      5-min Rain = 0
KREE 241910Z 16012KT 29/14 A2981 RMK A01 T02860142  RH  041%=      5-min Rain = 0
KREE 241911Z 16012G17KT 29/14 A2981 RMK A01 T02870144  RH  042%=      5-min Rain = 0
KREE 241912Z 17013KT 29/14 A2981 RMK A01 T02870144  RH  041%=      5-min Rain = 0
KREE 241913Z 17014KT 29/15 A2981 RMK A01 T02870145  RH  042%=      5-min Rain = 0
KREE 241914Z 16012KT 29/14 A2981 RMK A01 T02890141  RH  040%=      5-min Rain = 0
KREE 241915Z 16010KT 29/14 A2981 RMK A01 T02870140  RH  040%=      5-min Rain = 0
KREE 241916Z 16008KT 29/14 A2981 RMK A01 T02860144  RH  042%=      5-min Rain = 0
KREE 241917Z 15009G15KT 29/16 A2981 RMK A01 T02850155  RH  045%=      5-min Rain = 0
KREE 241918Z 16013KT 29/15 A2981 RMK A01 T02890152  RH  043%=      5-min Rain = 0
KREE 241919Z 17013KT 29/15 A2981 RMK A01 T02900151  RH  043%=      5-min Rain = 0
KREE 241920Z 16011G16KT 29/15 A2981 RMK A01 T02910153  RH  043%=      5-min Rain = 0
KREE 241921Z 15014KT 29/16 A2981 RMK A01 T02880158  RH  045%=      5-min Rain = 0
KREE 241922Z 14012KT 29/16 A2981 RMK A01 T02900156  RH  044%=      5-min Rain = 0
KREE 241923Z 14008G15KT 29/16 A2981 RMK A01 T02880158  RH  045%=      5-min Rain = 0
KREE 241924Z 14016KT 29/16 A2981 RMK A01 T02870157  RH  045%=      5-min Rain = 0
KREE 241925Z 16011KT 29/15 A2981 RMK A01 T02890153  RH  044%=      5-min Rain = 0
KREE 241926Z 16008KT 29/15 A2981 RMK A01 T02880154  RH  044%=      5-min Rain = 0
KREE 241927Z 17006KT 29/16 A2981 RMK A01 T02860156  RH  045%=      5-min Rain = 0
KREE 241928Z 16013KT 29/16 A2981 RMK A01 T02850158  RH  046%=      5-min Rain = 0
KREE 241929Z 15013KT 29/16 A298 RMK A01 T02870156  RH  045%=      5-min Rain = 0
KREE 241930Z 15012G18KT 29/16 A2981 RMK A01 T02890155  RH  044%=      5-min Rain = 0
KREE 241931Z 15008KT 29/15 A298 RMK A01 T02900154  RH  044%=      5-min Rain = 0
KREE 241932Z 13012KT 29/16 A298 RMK A01 T02880155  RH  044%=      5-min Rain = 0
KREE 241933Z 14014KT 29/16 A298 RMK A01 T02880155  RH  045%=      5-min Rain = 0
KREE 241934Z 16011KT 29/15 A298 RMK A01 T02880153  RH  044%=      5-min Rain = 0
KREE 241935Z 15015KT 29/15 A298 RMK A01 T02890153  RH  044%=      5-min Rain = 0
KREE 241936Z 14013KT 29/15 A298 RMK A01 T02890154  RH  044%=      5-min Rain = 0
KREE 241937Z 15014G19KT 29/15 A298 RMK A01 T02900154  RH  043%=      5-min Rain = 0
KREE 241938Z 14011G16KT 29/16 A298 RMK A01 T02910157  RH  044%=      5-min Rain = 0
KREE 241939Z 15010KT 29/16 A298 RMK A01 T02900158  RH  045%=      5-min Rain = 0
KREE 241940Z 13011KT 29/16 A298 RMK A01 T02900158  RH  045%=      5-min Rain = 0
KREE 241941Z 15011KT 29/16 A298 RMK A01 T02920157  RH  044%=      5-min Rain = 0
KREE 241942Z 15016KT 29/16 A298 RMK A01 T02930156  RH  043%=      5-min Rain = 0
KREE 241943Z 16014KT 29/16 A298 RMK A01 T02930155  RH  043%=      5-min Rain = 0
KREE 241944Z 15012KT 29/16 A298 RMK A01 T02930155  RH  043%=      5-min Rain = 0
KREE 241945Z 16011G16KT 29/16 A298 RMK A01 T02930156  RH  043%=      5-min Rain = 0
KREE 241946Z 15013G19KT 29/16 A298 RMK A01 T02940156  RH  043%=      5-min Rain = 0
KREE 241947Z 16013KT 29/16 A2979 RMK A01 T02940156  RH  043%=      5-min Rain = 0
KREE 241948Z 16015KT 29/16 A2979 RMK A01 T02940158  RH  044%=      5-min Rain = 0
KREE 241949Z 16014KT 30/16 A2979 RMK A01 T02960157  RH  043%=      5-min Rain = 0
KREE 241950Z 15015KT 30/15 A2979 RMK A01 T02970154  RH  042%=      5-min Rain = 0
KREE 241951Z 16013G19KT 30/15 A2979 RMK A01 T02950151  RH  042%=      5-min Rain = 0
KREE 241952Z 15013KT 29/15 A2979 RMK A01 T02940153  RH  042%=      5-min Rain = 0
KREE 241953Z 14016KT 29/16 A2979 RMK A01 T02940155  RH  043%=      5-min Rain = 0
KREE 241954Z 16012KT 30/15 A2979 RMK A01 T02960154  RH  042%=      5-min Rain = 0
KREE 241955Z 17014KT 30/15 A2979 RMK A01 T02980153  RH  041%=      5-min Rain = 0
KREE 241956Z 16013KT 30/15 A2979 RMK A01 T02990148  RH  040%=      5-min Rain = 0
KREE 241957Z 15009KT 30/15 A2979 RMK A01 T02970153  RH  042%=      5-min Rain = 0
KREE 241958Z 15008G16KT 29/15 A2979 RMK A01 T02940150  RH  042%=      5-min Rain = 0
KREE 241959Z 17013G18KT 29/15 A2979 RMK A01 T02920152  RH  042%=      5-min Rain = 0
KREE 242000Z 16011G16KT 29/15 A2979 RMK A01 T02940151  RH  042%=      5-min Rain = 0
KREE 242001Z 16011KT 30/15 A2979 RMK A01 T02950152  RH  042%=      5-min Rain = 0
KREE 242002Z 16012KT 30/15 A2979 RMK A01 T02960150  RH  041%=      5-min Rain = 0
KREE 242003Z 14013G21KT 30/15 A2979 RMK A01 T02950151  RH  042%=      5-min Rain = 0
KREE 242004Z 15017KT 30/16 A2979 RMK A01 T02970155  RH  042%=      5-min Rain = 0
KREE 242005Z 16013G18KT 30/16 A2979 RMK A01 T02990157  RH  042%=      5-min Rain = 0
KREE 242006Z 16013G18KT 30/16 A2979 RMK A01 T02990158  RH  042%=      5-min Rain = 0
KREE 242007Z 15011G16KT 30/16 A2979 RMK A01 T02990157  RH  042%=      5-min Rain = 0
KREE 242008Z 14012G18KT 30/16 A2979 RMK A01 T02970159  RH  043%=      5-min Rain = 0
KREE 242009Z 13014G19KT 30/16 A2979 RMK A01 T02990157  RH  042%=      5-min Rain = 0
KREE 242010Z 13014KT 30/16 A2979 RMK A01 T02990158  RH  043%=      5-min Rain = 0
KREE 242011Z 14013KT 30/16 A2978 RMK A01 T02970160  RH  043%=      5-min Rain = 0
KREE 242012Z 14011G18KT 30/16 A2978 RMK A01 T02980159  RH  043%=      5-min Rain = 0
KREE 242013Z 15011G18KT 30/16 A2978 RMK A01 T02990159  RH  043%=      5-min Rain = 0
KREE 242014Z 16014KT 30/16 A2978 RMK A01 T02990155  RH  041%=      5-min Rain = 0
KREE 242015Z 15013G18KT 30/15 A2978 RMK A01 T03030150  RH  040%=      5-min Rain = 0
KREE 242016Z 16014G20KT 30/15 A2978 RMK A01 T03010153  RH  041%=      5-min Rain = 0
KREE 242017Z 16013KT 30/15 A2978 RMK A01 T02990145  RH  039%=      5-min Rain = 0
KREE 242018Z 16012KT 30/15 A2978 RMK A01 T02990150  RH  040%=      5-min Rain = 0
KREE 242019Z 14013G19KT 30/16 A2978 RMK A01 T02990157  RH  042%=      5-min Rain = 0
KREE 242020Z 14015KT 30/16 A2978 RMK A01 T02990160  RH  043%=      5-min Rain = 0
KREE 242021Z 12015KT 30/16 A2978 RMK A01 T02980158  RH  043%=      5-min Rain = 0
KREE 242022Z 14012KT 30/16 A2978 RMK A01 T02970160  RH  044%=      5-min Rain = 0
KREE 242023Z 15015KT 30/16 A2978 RMK A01 T02980155  RH  042%=      5-min Rain = 0
KREE 242024Z 16014G20KT 30/15 A2977 RMK A01 T03000153  RH  041%=      5-min Rain = 0
KREE 242025Z 15015KT 30/15 A2977 RMK A01 T03000148  RH  040%=      5-min Rain = 0
KREE 242026Z 16012KT 30/15 A2977 RMK A01 T02990148  RH  040%=      5-min Rain = 0
KREE 242027Z 15013G18KT 30/15 A2977 RMK A01 T02990152  RH  041%=      5-min Rain = 0
KREE 242028Z 15017KT 30/16 A2977 RMK A01 T03020158  RH  042%=      5-min Rain = 0
KREE 242029Z 15011G17KT 30/16 A2977 RMK A01 T03040161  RH  042%=      5-min Rain = 0
KREE 242030Z 17009KT 31/16 A2977 RMK A01 T03050162  RH  042%=      5-min Rain = 0
KREE 242031Z 14010KT 31/16 A2977 RMK A01 T03070159  RH  041%=      5-min Rain = 0
KREE 242032Z 14014KT 31/16 A2977 RMK A01 T03070156  RH  040%=      5-min Rain = 0
KREE 242033Z 17011KT 31/15 A2977 RMK A01 T03080150  RH  038%=      5-min Rain = 0
KREE 242034Z 18011KT 31/15 A2977 RMK A01 T03070150  RH  038%=      5-min Rain = 0
KREE 242035Z 17014KT 31/15 A2977 RMK A01 T03060152  RH  039%=      5-min Rain = 0
KREE 242036Z 16013KT 31/15 A2977 RMK A01 T03060153  RH  040%=      5-min Rain = 0
KREE 242037Z 14013KT 31/15 A2977 RMK A01 T03050147  RH  038%=      5-min Rain = 0
KREE 242038Z 13014KT 30/14 A2977 RMK A01 T03040143  RH  038%=      5-min Rain = 0
KREE 242039Z 13011KT 31/14 A2977 RMK A01 T03050143  RH  037%=      5-min Rain = 0
KREE 242040Z 14010KT 31/14 A2977 RMK A01 T03050144  RH  037%=      5-min Rain = 0
KREE 242041Z 16012KT 31/14 A2977 RMK A01 T03050144  RH  038%=      5-min Rain = 0
KREE 242042Z 17010KT 31/14 A2977 RMK A01 T03060139  RH  036%=      5-min Rain = 0
KREE 242043Z 16014KT 30/14 A2977 RMK A01 T03030138  RH  037%=      5-min Rain = 0
KREE 242044Z 15013G18KT 30/14 A2977 RMK A01 T03030141  RH  037%=      5-min Rain = 0
KREE 242045Z 14009KT 30/14 A2977 RMK A01 T03040142  RH  037%=      5-min Rain = 0
KREE 242046Z 14009KT 30/14 A2977 RMK A01 T03040143  RH  037%=      5-min Rain = 0
KREE 242047Z 13012KT 31/15 A2977 RMK A01 T03060149  RH  038%=      5-min Rain = 0
KREE 242048Z 14009KT 31/15 A2976 RMK A01 T03080152  RH  039%=      5-min Rain = 0
KREE 242049Z 15008KT 31/15 A2976 RMK A01 T03060153  RH  040%=      5-min Rain = 0
KREE 242050Z 15014KT 30/15 A2976 RMK A01 T03040153  RH  040%=      5-min Rain = 0
KREE 242051Z 16013KT 31/14 A2976 RMK A01 T03050144  RH  038%=      5-min Rain = 0
KREE 242052Z 15012KT 31/14 A2976 RMK A01 T03070139  RH  036%=      5-min Rain = 0
KREE 242053Z 15012KT 31/14 A2976 RMK A01 T03070143  RH  037%=      5-min Rain = 0
KREE 242054Z 15012G19KT 31/15 A2976 RMK A01 T03060148  RH  038%=      5-min Rain = 0
KREE 242055Z 16016KT 31/14 A2976 RMK A01 T03060144  RH  037%=      5-min Rain = 0
KREE 242056Z 17009KT 31/14 A2976 RMK A01 T03080142  RH  037%=      5-min Rain = 0
KREE 242057Z 15008KT 31/15 A2976 RMK A01 T03050147  RH  038%=      5-min Rain = 0
KREE 242058Z 15009KT 31/15 A2976 RMK A01 T03050147  RH  038%=      5-min Rain = 0
KREE 242059Z 15013KT 31/15 A2976 RMK A01 T03060146  RH  038%=      5-min Rain = 0
KREE 242100Z 17012KT 31/14 A2976 RMK A01 T03080141  RH  036%=      5-min Rain = 0
KREE 242101Z 16017KT 31/14 A2975 RMK A01 T03090139  RH  036%=      5-min Rain = 0
KREE 242102Z 14013KT 31/14 A2976 RMK A01 T03080135  RH  035%=      5-min Rain = 0
KREE 242103Z 13013KT 31/14 A2976 RMK A01 T03070136  RH  035%=      5-min Rain = 0
KREE 242104Z 15010KT 31/14 A2975 RMK A01 T03070138  RH  036%=      5-min Rain = 0
KREE 242105Z 14011KT 31/14 A2975 RMK A01 T03090139  RH  035%=      5-min Rain = 0
KREE 242106Z 16011KT 31/14 A2975 RMK A01 T03120138  RH  035%=      5-min Rain = 0
KREE 242107Z 16012G17KT 32/14 A2975 RMK A01 T03150137  RH  034%=      5-min Rain = 0
KREE 242108Z 15013KT 31/14 A2975 RMK A01 T03130139  RH  035%=      5-min Rain = 0
KREE 242109Z 14013KT 31/14 A2975 RMK A01 T03100144  RH  037%=      5-min Rain = 0
KREE 242110Z 16013KT 31/14 A2975 RMK A01 T03110141  RH  036%=      5-min Rain = 0
KREE 242111Z 17012KT 31/14 A2975 RMK A01 T03110139  RH  035%=      5-min Rain = 0
KREE 242112Z 18010G15KT 31/14 A2974 RMK A01 T03110135  RH  034%=      5-min Rain = 0
KREE 242113Z 18009KT 31/14 A2974 RMK A01 T03110139  RH  035%=      5-min Rain = 0
KREE 242114Z 15012G18KT 31/14 A2974 RMK A01 T03100142  RH  036%=      5-min Rain = 0
KREE 242115Z 14015KT 31/14 A2974 RMK A01 T03120141  RH  036%=      5-min Rain = 0
KREE 242116Z 16014KT 31/14 A2974 RMK A01 T03140141  RH  035%=      5-min Rain = 0
KREE 242117Z 18015KT 32/13 A2974 RMK A01 T03160134  RH  033%=      5-min Rain = 0
KREE 242118Z 18015KT 32/13 A2974 RMK A01 T03150132  RH  033%=      5-min Rain = 0
KREE 242119Z 18011G16KT 31/13 A2974 RMK A01 T03110127  RH  032%=      5-min Rain = 0
KREE 242120Z 14011KT 31/13 A2974 RMK A01 T03060133  RH  035%=      5-min Rain = 0
KREE 242121Z 14011KT 31/13 A2974 RMK A01 T03070130  RH  034%=      5-min Rain = 0
KREE 242122Z 16011KT 31/13 A2974 RMK A01 T03080132  RH  034%=      5-min Rain = 0
KREE 242123Z 14013KT 31/12 A2974 RMK A01 T03130123  RH  031%=      5-min Rain = 0
KREE 242124Z 13010KT 32/12 A2974 RMK A01 T03150121  RH  031%=      5-min Rain = 0
KREE 242125Z 13010KT 31/12 A2973 RMK A01 T03130122  RH  031%=      5-min Rain = 0
KREE 242126Z 13010KT 31/13 A2973 RMK A01 T03120131  RH  033%=      5-min Rain = 0
KREE 242127Z 12009KT 31/12 A2973 RMK A01 T03110121  RH  031%=      5-min Rain = 0
KREE 242128Z 14010G15KT 31/12 A2973 RMK A01 T03090122  RH  032%=      5-min Rain = 0
KREE 242129Z 16015G25KT 31/13 A2973 RMK A01 T03120131  RH  033%=      5-min Rain = 0
KREE 242130Z 14012G18KT 31/13 A2973 RMK A01 T03130130  RH  033%=      5-min Rain = 0
KREE 242131Z 14015KT 31/13 A2973 RMK A01 T03130131  RH  033%=      5-min Rain = 0
KREE 242132Z 15013G18KT 31/13 A2973 RMK A01 T03100131  RH  033%=      5-min Rain = 0
KREE 242133Z 14014KT 31/13 A2973 RMK A01 T03070129  RH  034%=      5-min Rain = 0
KREE 242134Z 13012KT 31/13 A2973 RMK A01 T03080128  RH  033%=      5-min Rain = 0
KREE 242135Z 15013KT 31/13 A2972 RMK A01 T03090131  RH  034%=      5-min Rain = 0
KREE 242136Z 14013KT 31/13 A2972 RMK A01 T03100132  RH  034%=      5-min Rain = 0
KREE 242137Z 15014KT 31/13 A2972 RMK A01 T03120134  RH  034%=      5-min Rain = 0
KREE 242138Z 16014KT 31/14 A2972 RMK A01 T03130135  RH  034%=      5-min Rain = 0
KREE 242139Z 14016G21KT 32/14 A2972 RMK A01 T03170135  RH  033%=      5-min Rain = 0
KREE 242140Z 13016KT 32/13 A2972 RMK A01 T03190130  RH  032%=      5-min Rain = 0
KREE 242141Z 12013KT 32/13 A2972 RMK A01 T03150132  RH  033%=      5-min Rain = 0
KREE 242142Z 15011KT 31/13 A2972 RMK A01 T03110131  RH  033%=      5-min Rain = 0
KREE 242143Z 16012KT 31/13 A2972 RMK A01 T03100127  RH  033%=      5-min Rain = 0
KREE 242144Z 15012G17KT 31/12 A2972 RMK A01 T03100123  RH  032%=      5-min Rain = 0
KREE 242145Z 16009KT 31/13 A2972 RMK A01 T03110127  RH  032%=      5-min Rain = 0
KREE 242146Z 16010G16KT 31/13 A2972 RMK A01 T03120129  RH  033%=      5-min Rain = 0
KREE 242147Z 16010KT 31/13 A2972 RMK A01 T03130129  RH  033%=      5-min Rain = 0
KREE 242148Z 16011KT 31/13 A2972 RMK A01 T03140132  RH  033%=      5-min Rain = 0
KREE 242149Z 15014KT 31/13 A2971 RMK A01 T03140130  RH  033%=      5-min Rain = 0
KREE 242150Z 15013KT 31/12 A2971 RMK A01 T03140122  RH  031%=      5-min Rain = 0
KREE 242151Z 14011KT 31/13 A2972 RMK A01 T03120125  RH  032%=      5-min Rain = 0
KREE 242152Z 17011KT 31/13 A2971 RMK A01 T03120128  RH  032%=      5-min Rain = 0
KREE 242153Z 17010KT 31/13 A2971 RMK A01 T03120130  RH  033%=      5-min Rain = 0
KREE 242154Z 15013KT 31/13 A2971 RMK A01 T03130134  RH  034%=      5-min Rain = 0
KREE 242155Z 14012KT 31/13 A2971 RMK A01 T03140132  RH  033%=      5-min Rain = 0
KREE 242156Z 15011KT 31/13 A2971 RMK A01 T03130132  RH  033%=      5-min Rain = 0
KREE 242157Z 16011KT 31/13 A2971 RMK A01 T03140126  RH  032%=      5-min Rain = 0
KREE 242158Z 15014KT 32/13 A2971 RMK A01 T03160127  RH  032%=      5-min Rain = 0
KREE 242159Z 16011KT 32/12 A2971 RMK A01 T03150119  RH  030%=      5-min Rain = 0
KREE 242200Z 16012KT 31/12 A2971 RMK A01 T03130120  RH  031%=      5-min Rain = 0
KREE 242201Z 15012KT 31/12 A2971 RMK A01 T03100115  RH  030%=      5-min Rain = 0
KREE 242202Z 16011KT 31/11 A297 RMK A01 T03070114  RH  031%=      5-min Rain = 0
KREE 242203Z 17012KT 31/11 A297 RMK A01 T03050114  RH  031%=      5-min Rain = 0
KREE 242204Z 17009G14KT 30/12 A297 RMK A01 T03040117  RH  032%=      5-min Rain = 0
KREE 242205Z 17006KT 30/12 A297 RMK A01 T03030120  RH  033%=      5-min Rain = 0
KREE 242206Z 16010KT 30/12 A297 RMK A01 T03030122  RH  033%=      5-min Rain = 0
KREE 242207Z 14010KT 30/13 A297 RMK A01 T03030132  RH  035%=      5-min Rain = 0
KREE 242208Z 14012KT 30/13 A297 RMK A01 T03010133  RH  036%=      5-min Rain = 0
KREE 242209Z 15012KT 30/13 A297 RMK A01 T03000128  RH  035%=      5-min Rain = 0
KREE 242210Z 16013KT 30/13 A297 RMK A01 T03000127  RH  034%=      5-min Rain = 0
KREE 242211Z 16013KT 30/13 A297 RMK A01 T03000128  RH  035%=      5-min Rain = 0
KREE 242212Z 16010KT 30/13 A297 RMK A01 T02990129  RH  035%=      5-min Rain = 0
KREE 242213Z 15011KT 30/13 A297 RMK A01 T02990129  RH  035%=      5-min Rain = 0
KREE 242214Z 14011KT 30/13 A297 RMK A01 T02990127  RH  035%=      5-min Rain = 0
KREE 242215Z 15009KT 30/12 A297 RMK A01 T02990123  RH  034%=      5-min Rain = 0
KREE 242216Z 15006KT 30/12 A297 RMK A01 T02990122  RH  034%=      5-min Rain = 0
KREE 242217Z 15006KT 30/13 A297 RMK A01 T02980125  RH  035%=      5-min Rain = 0
KREE 242218Z 14008KT 30/13 A297 RMK A01 T02980131  RH  036%=      5-min Rain = 0
KREE 242219Z 13007KT 30/14 A297 RMK A01 T02970142  RH  039%=      5-min Rain = 0
KREE 242220Z 14010KT 30/15 A297 RMK A01 T02960147  RH  040%=      5-min Rain = 0
KREE 242221Z 14010KT 30/15 A297 RMK A01 T02950149  RH  041%=      5-min Rain = 0
KREE 242222Z 14010KT 29/15 A297 RMK A01 T02940148  RH  041%=      5-min Rain = 0
KREE 242223Z 13008KT 29/15 A297 RMK A01 T02940148  RH  041%=      5-min Rain = 0
KREE 242224Z 13010KT 29/15 A297 RMK A01 T02940150  RH  041%=      5-min Rain = 0
KREE 242225Z 14011KT 30/15 A297 RMK A01 T02950150  RH  041%=      5-min Rain = 0
KREE 242226Z 14011KT 29/15 A297 RMK A01 T02940149  RH  041%=      5-min Rain = 0
KREE 242227Z 13010KT 29/15 A2969 RMK A01 T02930150  RH  042%=      5-min Rain = 0
KREE 242228Z 13010KT 29/15 A2969 RMK A01 T02920152  RH  043%=      5-min Rain = 0
KREE 242229Z 12009KT 29/15 A2969 RMK A01 T02910153  RH  043%=      5-min Rain = 0
KREE 242230Z 13010KT 29/15 A2969 RMK A01 T02910152  RH  043%=      5-min Rain = 0
KREE 242231Z 13010KT 29/15 A2969 RMK A01 T02900150  RH  042%=      5-min Rain = 0
KREE 242232Z 14010KT 29/15 A297 RMK A01 T02900150  RH  043%=      5-min Rain = 0
KREE 242233Z 14009KT 29/15 A297 RMK A01 T02890150  RH  043%=      5-min Rain = 0
KREE 242234Z 14008KT 29/15 A2969 RMK A01 T02890150  RH  043%=      5-min Rain = 0
KREE 242235Z 14010KT 29/15 A2969 RMK A01 T02890148  RH  042%=      5-min Rain = 0
KREE 242236Z 14010KT 29/15 A2969 RMK A01 T02890147  RH  042%=      5-min Rain = 0
KREE 242237Z 15009KT 29/15 A2969 RMK A01 T02890148  RH  042%=      5-min Rain = 0
KREE 242238Z 16011KT 29/15 A2969 RMK A01 T02890149  RH  043%=      5-min Rain = 0
KREE 242239Z 16012KT 29/15 A297 RMK A01 T02880152  RH  043%=      5-min Rain = 0
KREE 242240Z 15013KT 29/16 A297 RMK A01 T02880156  RH  045%=      5-min Rain = 0
KREE 242241Z 17013KT 29/16 A2971 RMK A01 T02870163  RH  047%=      5-min Rain = 0
KREE 242242Z 19016G22KT 28/17 A2971 RMK A01 T02840170  RH  050%=      5-min Rain = 0
KREE 242243Z 19022G29KT 28/11 A2972 RMK A01 T02800109  RH  035%=      5-min Rain = 0
KREE 242244Z 20021G29KT 27/09 A2972 RMK A01 T02730085  RH  031%=      5-min Rain = 0
KREE 242245Z 20024G31KT 26/07 A2972 RMK A01 T02640074  RH  030%=      5-min Rain = 0
KREE 242246Z 22024G30KT 26/08 A2973 RMK A01 T02590077  RH  031%=      5-min Rain = 0
KREE 242247Z 22021G28KT 25/09 A2973 RMK A01 T02480091  RH  037%=      5-min Rain = 0
KREE 242248Z 21025G30KT 24/10 A2973 RMK A01 T02370101  RH  042%=      5-min Rain = 0
KREE 242249Z 21025G30KT 23/12 A2974 RMK A01 T02250118  RH  051%=      5-min Rain = 0
KREE 242250Z 22032G41KT 21/11 A2974 RMK A01 T02090113  RH  054%=      5-min Rain = 0.02
KREE 242251Z 22034G41KT 19/10 A2974 RMK A01 T01930100  RH  055%=      5-min Rain = 0.03
KREE 242252Z 23035G41KT 18/10 A2975 RMK A01 T01780101  RH  061%=      5-min Rain = 0.03
KREE 242253Z 22031KT 17/10 A2977 RMK A01 T01670097  RH  063%=      5-min Rain = 0.04
KREE 242254Z 21024G30KT 16/09 A2978 RMK A01 T01640090  RH  062%=      5-min Rain = 0.03
KREE 242255Z 21019KT 17/09 A2979 RMK A01 T01650088  RH  060%=      5-min Rain = 0.05
KREE 242256Z 20017KT 16/09 A2978 RMK A01 T01640087  RH  060%=      5-min Rain = 0.02
KREE 242257Z 17019G24KT 16/10 A2978 RMK A01 T01600098  RH  066%=      5-min Rain = 0.03
KREE 242258Z 15020KT 15/11 A2977 RMK A01 T01540105  RH  073%=      5-min Rain = 0.01
KREE 242259Z 15019KT 15/11 A2977 RMK A01 T01520106  RH  074%=      5-min Rain = 0.01
KREE 242300Z 15016KT 15/11 A2977 RMK A01 T01520108  RH  075%=      5-min Rain = 0.01
KREE 242301Z 15016KT 15/11 A2977 RMK A01 T01530109  RH  075%=      5-min Rain = 0
KREE 242302Z 15015KT 16/11 A2977 RMK A01 T01550106  RH  073%=      5-min Rain = 0.01
KREE 242303Z 16020KT 16/11 A2977 RMK A01 T01580106  RH  071%=      5-min Rain = 0
KREE 242304Z 16019KT 17/10 A2977 RMK A01 T01650100  RH  066%=      5-min Rain = 0
KREE 242305Z 15014G19KT 17/10 A2978 RMK A01 T01690104  RH  065%=      5-min Rain = 0
KREE 242306Z 14011KT 17/11 A2977 RMK A01 T01690110  RH  068%=      5-min Rain = 0.01
KREE 242307Z 12011KT 17/11 A2976 RMK A01 T01660107  RH  068%=      5-min Rain = 0
KREE 242308Z 10010KT 17/11 A2975 RMK A01 T01670105  RH  066%=      5-min Rain = 0.01
KREE 242309Z 10007KT 17/11 A2975 RMK A01 T01700108  RH  067%=      5-min Rain = 0
KREE 242310Z 10006KT 17/11 A2975 RMK A01 T01710108  RH  066%=      5-min Rain = 0
KREE 242311Z 11007KT 17/11 A2974 RMK A01 T01730107  RH  065%=      5-min Rain = 0
KREE 242312Z 08010KT 17/11 A2973 RMK A01 T01740113  RH  067%=      5-min Rain = 0
KREE 242313Z 07013KT 18/11 A2971 RMK A01 T01770107  RH  064%=      5-min Rain = 0
KREE 242314Z 06016KT 18/11 A297 RMK A01 T01810105  RH  061%=      5-min Rain = 0
KREE 242315Z 06019KT 18/11 A297 RMK A01 T01830109  RH  062%=      5-min Rain = 0.01
KREE 242316Z 06018KT 18/11 A2969 RMK A01 T01830114  RH  064%=      5-min Rain = 0
KREE 242317Z 06020KT 18/10 A2969 RMK A01 T01840102  RH  059%=      5-min Rain = 0
KREE 242318Z 01016G23KT 19/09 A2969 RMK A01 T01880090  RH  053%=      5-min Rain = 0
KREE 242319Z 01013G18KT 20/07 A297 RMK A01 T01990074  RH  044%=      5-min Rain = 0
KREE 242320Z 04008KT 21/08 A297 RMK A01 T02090078  RH  043%=      5-min Rain = 0
KREE 242321Z 03009KT 21/08 A297 RMK A01 T02130078  RH  042%=      5-min Rain = 0
KREE 242322Z 03009KT 21/10 A297 RMK A01 T02130097  RH  047%=      5-min Rain = 0
KREE 242323Z 04010KT 21/07 A297 RMK A01 T02120070  RH  040%=      5-min Rain = 0
KREE 242324Z 02009KT 22/08 A297 RMK A01 T02170078  RH  041%=      5-min Rain = 0
KREE 242325Z 02008KT 22/09 A297 RMK A01 T02160091  RH  045%=      5-min Rain = 0
KREE 242326Z 01008KT 21/09 A297 RMK A01 T02130088  RH  045%=      5-min Rain = 0
KREE 242327Z 03008KT 21/09 A297 RMK A01 T02120086  RH  044%=      5-min Rain = 0
KREE 242328Z 03010KT 21/09 A297 RMK A01 T02120090  RH  046%=      5-min Rain = 0
KREE 242329Z 05010G15KT 21/07 A297 RMK A01 T02140071  RH  040%=      5-min Rain = 0
KREE 242330Z 03011KT 22/08 A297 RMK A01 T02190077  RH  040%=      5-min Rain = 0
KREE 242331Z 01006KT 22/08 A297 RMK A01 T02200082  RH  041%=      5-min Rain = 0
KREE 242332Z 03006KT 22/07 A297 RMK A01 T02190073  RH  039%=      5-min Rain = 0
KREE 242333Z 04007KT 22/06 A297 RMK A01 T02210060  RH  035%=      5-min Rain = 0
KREE 242334Z 07010KT 23/08 A297 RMK A01 T02250084  RH  041%=      5-min Rain = 0
KREE 242335Z 06016KT 22/09 A297 RMK A01 T02240093  RH  043%=      5-min Rain = 0
KREE 242336Z 06014KT 22/10 A297 RMK A01 T02180096  RH  046%=      5-min Rain = 0
KREE 242337Z 06012KT 21/09 A297 RMK A01 T02140092  RH  046%=      5-min Rain = 0
KREE 242338Z 06010KT 21/10 A297 RMK A01 T02120101  RH  049%=      5-min Rain = 0
KREE 242339Z 06011KT 21/10 A2969 RMK A01 T02090103  RH  051%=      5-min Rain = 0
KREE 242340Z 06011KT 21/10 A2969 RMK A01 T02080097  RH  049%=      5-min Rain = 0
KREE 242341Z 07011KT 21/10 A2968 RMK A01 T02100098  RH  049%=      5-min Rain = 0
KREE 242342Z 07010KT 21/10 A2968 RMK A01 T02110102  RH  050%=      5-min Rain = 0
KREE 242343Z 06009KT 21/11 A2968 RMK A01 T02100107  RH  051%=      5-min Rain = 0
KREE 242344Z 06010KT 21/10 A2968 RMK A01 T02100095  RH  048%=      5-min Rain = 0
KREE 242345Z 06009KT 21/11 A2967 RMK A01 T02120107  RH  051%=      5-min Rain = 0
KREE 242346Z 05009KT 21/11 A2967 RMK A01 T02110108  RH  052%=      5-min Rain = 0
KREE 242347Z 05011KT 21/09 A2967 RMK A01 T02110087  RH  045%=      5-min Rain = 0
KREE 242348Z 05010KT 22/08 A2967 RMK A01 T02170083  RH  042%=      5-min Rain = 0
KREE 242349Z 06010KT 22/09 A2967 RMK A01 T02200089  RH  043%=      5-min Rain = 0
KREE 242350Z 05008KT 22/10 A2968 RMK A01 T02190096  RH  045%=      5-min Rain = 0
KREE 242351Z 05010KT 22/10 A2968 RMK A01 T02170098  RH  047%=      5-min Rain = 0
KREE 242352Z 05010KT 22/09 A2968 RMK A01 T02160089  RH  044%=      5-min Rain = 0
KREE 242353Z 05010KT 22/09 A2968 RMK A01 T02170090  RH  044%=      5-min Rain = 0
KREE 242354Z 06010KT 22/09 A2968 RMK A01 T02180093  RH  045%=      5-min Rain = 0
KREE 242355Z 06011KT 22/11 A2968 RMK A01 T02170105  RH  049%=      5-min Rain = 0
KREE 242356Z 06011KT 22/11 A2968 RMK A01 T02150105  RH  050%=      5-min Rain = 0
KREE 242357Z 06010KT 21/10 A2968 RMK A01 T02130104  RH  050%=      5-min Rain = 0
KREE 242358Z 06009KT 21/11 A2968 RMK A01 T02120110  RH  052%=      5-min Rain = 0
KREE 242359Z 06009KT 21/11 A2968 RMK A01 T02110112  RH  053%=      5-min Rain = 0
KREE 250000Z 06008KT 21/11 A2968 RMK A01 T02110112  RH  053%=      5-min Rain = 0
KREE 250001Z 05009KT 21/12 A2968 RMK A01 T02100119  RH  056%=      5-min Rain = 0
KREE 250002Z 06007KT 21/12 A2968 RMK A01 T02090121  RH  057%=      5-min Rain = 0
KREE 250003Z 09009KT 21/12 A2968 RMK A01 T02080120  RH  057%=      5-min Rain = 0
KREE 250004Z 09011KT 21/12 A2968 RMK A01 T02060120  RH  058%=      5-min Rain = 0
KREE 250005Z 08010KT 21/11 A2968 RMK A01 T02070107  RH  053%=      5-min Rain = 0
KREE 250006Z 11011KT 21/10 A2969 RMK A01 T02120102  RH  050%=      5-min Rain = 0
KREE 250007Z 12011KT 21/12 A2969 RMK A01 T02140120  RH  055%=      5-min Rain = 0
KREE 250008Z 13013KT 21/12 A2969 RMK A01 T02130120  RH  055%=      5-min Rain = 0
KREE 250009Z 12014KT 21/12 A2969 RMK A01 T02130118  RH  055%=      5-min Rain = 0
KREE 250010Z 12013KT 21/12 A2969 RMK A01 T02130121  RH  056%=      5-min Rain = 0
KREE 250011Z 12015KT 21/12 A2969 RMK A01 T02120120  RH  056%=      5-min Rain = 0
KREE 250012Z 12016KT 21/12 A2969 RMK A01 T02120119  RH  055%=      5-min Rain = 0
KREE 250013Z 12018KT 21/12 A2969 RMK A01 T02130115  RH  054%=      5-min Rain = 0
KREE 250014Z 11018KT 21/12 A2969 RMK A01 T02120118  RH  055%=      5-min Rain = 0
KREE 250015Z 11018KT 21/12 A2969 RMK A01 T02100117  RH  055%=      5-min Rain = 0
KREE 250016Z 11018G23KT 21/12 A2969 RMK A01 T02080118  RH  057%=      5-min Rain = 0
KREE 250017Z 12018KT 21/11 A297 RMK A01 T02060114  RH  055%=      5-min Rain = 0
KREE 250018Z 12018KT 21/11 A2969 RMK A01 T02060114  RH  055%=      5-min Rain = 0
KREE 250019Z 11017G22KT 21/12 A2969 RMK A01 T02060117  RH  057%=      5-min Rain = 0
KREE 250020Z 11018KT 21/12 A2969 RMK A01 T02060117  RH  057%=      5-min Rain = 0
KREE 250021Z 11017G22KT 21/12 A2969 RMK A01 T02050116  RH  057%=      5-min Rain = 0
KREE 250022Z 10016KT 20/12 A2969 RMK A01 T02030119  RH  058%=      5-min Rain = 0
KREE 250023Z 10015KT 20/12 A2969 RMK A01 T02020120  RH  059%=      5-min Rain = 0
KREE 250024Z 10016KT 20/12 A2968 RMK A01 T02010118  RH  059%=      5-min Rain = 0
KREE 250025Z 10014G19KT 20/12 A2968 RMK A01 T02010121  RH  060%=      5-min Rain = 0
KREE 250026Z 10014G19KT 20/12 A2968 RMK A01 T02010119  RH  059%=      5-min Rain = 0
KREE 250027Z 10013KT 20/12 A2969 RMK A01 T02010120  RH  060%=      5-min Rain = 0
KREE 250028Z 10016KT 20/12 A2969 RMK A01 T02010123  RH  061%=      5-min Rain = 0
KREE 250029Z 10016KT 20/12 A2969 RMK A01 T02010118  RH  059%=      5-min Rain = 0
KREE 250030Z 10015KT 20/12 A2969 RMK A01 T02020118  RH  058%=      5-min Rain = 0
KREE 250031Z 09015KT 20/12 A2969 RMK A01 T02020118  RH  059%=      5-min Rain = 0
KREE 250032Z 10014KT 20/12 A2968 RMK A01 T02020121  RH  060%=      5-min Rain = 0
KREE 250033Z 10015KT 20/12 A2968 RMK A01 T02020121  RH  060%=      5-min Rain = 0
KREE 250034Z 10013KT 20/12 A2968 RMK A01 T02020121  RH  060%=      5-min Rain = 0
KREE 250035Z 10013KT 20/12 A2968 RMK A01 T02020123  RH  061%=      5-min Rain = 0
KREE 250036Z 09015KT 20/12 A2968 RMK A01 T02020117  RH  058%=      5-min Rain = 0
KREE 250037Z 09014KT 20/12 A2968 RMK A01 T02020119  RH  059%=      5-min Rain = 0
KREE 250038Z 09014KT 20/12 A2968 RMK A01 T02020119  RH  059%=      5-min Rain = 0
KREE 250039Z 09013KT 20/12 A2968 RMK A01 T02020120  RH  059%=      5-min Rain = 0
KREE 250040Z 09013KT 20/12 A2968 RMK A01 T02020121  RH  060%=      5-min Rain = 0
KREE 250041Z 08013KT 20/12 A2968 RMK A01 T02020122  RH  060%=      5-min Rain = 0
KREE 250042Z 08013KT 20/12 A2968 RMK A01 T02020120  RH  059%=      5-min Rain = 0
KREE 250043Z 08014KT 20/12 A2968 RMK A01 T02020120  RH  059%=      5-min Rain = 0
KREE 250044Z 08014G19KT 20/12 A2968 RMK A01 T02020120  RH  059%=      5-min Rain = 0
KREE 250045Z 07015KT 20/12 A2968 RMK A01 T02020118  RH  058%=      5-min Rain = 0
KREE 250046Z 08014KT 20/12 A2967 RMK A01 T02020115  RH  057%=      5-min Rain = 0
KREE 250047Z 08014KT 20/11 A2967 RMK A01 T02030113  RH  056%=      5-min Rain = 0
KREE 250048Z 08014KT 20/12 A2967 RMK A01 T02030116  RH  057%=      5-min Rain = 0
KREE 250049Z 08013G18KT 20/11 A2967 RMK A01 T02030113  RH  056%=      5-min Rain = 0
KREE 250050Z 08013KT 20/12 A2967 RMK A01 T02030118  RH  058%=      5-min Rain = 0
KREE 250051Z 09015KT 20/12 A2967 RMK A01 T02030115  RH  057%=      5-min Rain = 0
KREE 250052Z 09013KT 20/11 A2967 RMK A01 T02030114  RH  056%=      5-min Rain = 0
KREE 250053Z 09013KT 20/12 A2966 RMK A01 T02030116  RH  058%=      5-min Rain = 0
KREE 250054Z 09015KT 20/11 A2966 RMK A01 T02030113  RH  056%=      5-min Rain = 0
KREE 250055Z 09014KT 20/11 A2966 RMK A01 T02030108  RH  054%=      5-min Rain = 0
KREE 250056Z 09012KT 20/11 A2966 RMK A01 T02030111  RH  055%=      5-min Rain = 0
KREE 250057Z 09011KT 20/12 A2966 RMK A01 T02030116  RH  057%=      5-min Rain = 0
KREE 250058Z 10011KT 20/12 A2966 RMK A01 T02020119  RH  059%=      5-min Rain = 0
KREE 250059Z 09012KT 20/12 A2966 RMK A01 T02010118  RH  059%=      5-min Rain = 0
KREE 250100Z 09013KT 20/12 A2966 RMK A01 T02010117  RH  059%=      5-min Rain = 0
KREE 250101Z 09012KT 20/12 A2966 RMK A01 T02000118  RH  059%=      5-min Rain = 0
KREE 250102Z 09012KT 20/12 A2966 RMK A01 T02000118  RH  059%=      5-min Rain = 0
KREE 250103Z 09013KT 20/12 A2966 RMK A01 T01990115  RH  058%=      5-min Rain = 0
KREE 250104Z 09014KT 20/12 A2967 RMK A01 T01990115  RH  058%=      5-min Rain = 0
KREE 250105Z 09014KT 20/11 A2967 RMK A01 T01990113  RH  057%=      5-min Rain = 0
KREE 250106Z 09013KT 20/11 A2967 RMK A01 T01990114  RH  058%=      5-min Rain = 0
KREE 250107Z 09014KT 20/11 A2968 RMK A01 T01990113  RH  057%=      5-min Rain = 0
KREE 250108Z 09015KT 20/11 A2968 RMK A01 T01990113  RH  057%=      5-min Rain = 0
KREE 250109Z 09017KT 20/11 A2969 RMK A01 T02000106  RH  055%=      5-min Rain = 0
KREE 250110Z 10016KT 20/11 A2969 RMK A01 T02010109  RH  055%=      5-min Rain = 0
KREE 250111Z 10016KT 20/11 A2969 RMK A01 T02010107  RH  055%=      5-min Rain = 0
KREE 250112Z 10016G21KT 20/11 A297 RMK A01 T02020109  RH  055%=      5-min Rain = 0
KREE 250113Z 10015KT 20/11 A297 RMK A01 T02020111  RH  056%=      5-min Rain = 0
KREE 250114Z 10016G21KT 20/11 A297 RMK A01 T02010112  RH  056%=      5-min Rain = 0
KREE 250115Z 10017KT 20/11 A2971 RMK A01 T02010109  RH  055%=      5-min Rain = 0
KREE 250116Z 10017KT 20/11 A2971 RMK A01 T02010108  RH  055%=      5-min Rain = 0
KREE 250117Z 10016KT 20/11 A2971 RMK A01 T02020108  RH  055%=      5-min Rain = 0
KREE 250118Z 10017KT 20/11 A2971 RMK A01 T02020108  RH  055%=      5-min Rain = 0
KREE 250119Z 10018KT 20/11 A2971 RMK A01 T02020106  RH  054%=      5-min Rain = 0
KREE 250120Z 10017KT 20/11 A2971 RMK A01 T02020108  RH  055%=      5-min Rain = 0
KREE 250121Z 10017KT 20/11 A2971 RMK A01 T02020106  RH  054%=      5-min Rain = 0
KREE 250122Z 10018KT 20/11 A2971 RMK A01 T02020106  RH  054%=      5-min Rain = 0
KREE 250123Z 10017KT 20/11 A2971 RMK A01 T02020105  RH  054%=      5-min Rain = 0
KREE 250124Z 10017G22KT 20/10 A2971 RMK A01 T02020102  RH  053%=      5-min Rain = 0
KREE 250125Z 10016KT 20/10 A2971 RMK A01 T02030102  RH  052%=      5-min Rain = 0
KREE 250126Z 10017KT 20/10 A2971 RMK A01 T02040101  RH  052%=      5-min Rain = 0
KREE 250127Z 10017KT 21/10 A2971 RMK A01 T02050100  RH  051%=      5-min Rain = 0
KREE 250128Z 09017KT 21/10 A2971 RMK A01 T02050100  RH  051%=      5-min Rain = 0
KREE 250129Z 09018KT 21/10 A297 RMK A01 T02060098  RH  050%=      5-min Rain = 0
KREE 250130Z 09015KT 21/10 A297 RMK A01 T02070100  RH  051%=      5-min Rain = 0
KREE 250131Z 09016G21KT 21/10 A297 RMK A01 T02070099  RH  050%=      5-min Rain = 0
KREE 250132Z 09016G22KT 21/10 A297 RMK A01 T02070096  RH  049%=      5-min Rain = 0
KREE 250133Z 09016KT 21/10 A297 RMK A01 T02070096  RH  049%=      5-min Rain = 0
KREE 250134Z 09016G21KT 21/10 A297 RMK A01 T02070095  RH  048%=      5-min Rain = 0
KREE 250135Z 09016KT 21/10 A297 RMK A01 T02080095  RH  048%=      5-min Rain = 0
KREE 250136Z 09016KT 21/10 A297 RMK A01 T02080095  RH  048%=      5-min Rain = 0
KREE 250137Z 09016KT 21/10 A297 RMK A01 T02080095  RH  048%=      5-min Rain = 0
KREE 250138Z 09016KT 21/10 A2969 RMK A01 T02080097  RH  049%=      5-min Rain = 0
KREE 250139Z 09017KT 21/10 A2969 RMK A01 T02070097  RH  049%=      5-min Rain = 0
KREE 250140Z 09017KT 21/10 A2969 RMK A01 T02070096  RH  049%=      5-min Rain = 0
KREE 250141Z 09015KT 21/10 A2969 RMK A01 T02070099  RH  050%=      5-min Rain = 0
KREE 250142Z 09015KT 21/10 A2969 RMK A01 T02060100  RH  050%=      5-min Rain = 0
KREE 250143Z 09015KT 21/10 A2969 RMK A01 T02060100  RH  051%=      5-min Rain = 0
KREE 250144Z 10017KT 21/10 A297 RMK A01 T02060101  RH  051%=      5-min Rain = 0
KREE 250145Z 10017KT 21/10 A297 RMK A01 T02050101  RH  051%=      5-min Rain = 0
KREE 250146Z 11018G24KT 21/10 A2971 RMK A01 T02050104  RH  052%=      5-min Rain = 0
KREE 250147Z 11021G27KT 21/10 A2971 RMK A01 T02050103  RH  052%=      5-min Rain = 0
KREE 250148Z 11019G26KT 20/10 A2971 RMK A01 T02040096  RH  050%=      5-min Rain = 0
KREE 250149Z 11017KT 21/10 A297 RMK A01 T02050102  RH  051%=      5-min Rain = 0
KREE 250150Z 11018G23KT 20/10 A297 RMK A01 T02040101  RH  052%=      5-min Rain = 0
KREE 250151Z 11018KT 20/10 A297 RMK A01 T02030100  RH  052%=      5-min Rain = 0
KREE 250152Z 11017G22KT 20/10 A2971 RMK A01 T02020102  RH  053%=      5-min Rain = 0
KREE 250153Z 11022G29KT 20/10 A2971 RMK A01 T02010103  RH  053%=      5-min Rain = 0
KREE 250154Z 11023KT 20/10 A2971 RMK A01 T02000104  RH  054%=      5-min Rain = 0
KREE 250155Z 11022G27KT 20/11 A2971 RMK A01 T01980105  RH  055%=      5-min Rain = 0
KREE 250156Z 12020G26KT 20/11 A2971 RMK A01 T01960106  RH  056%=      5-min Rain = 0
KREE 250157Z 12022KT 20/11 A2971 RMK A01 T01950105  RH  056%=      5-min Rain = 0
KREE 250158Z 12019KT 19/11 A2971 RMK A01 T01940105  RH  056%=      5-min Rain = 0
KREE 250159Z 12018KT 19/11 A2972 RMK A01 T01940108  RH  058%=      5-min Rain = 0
KREE 250200Z 13016KT 19/11 A2972 RMK A01 T01930108  RH  058%=      5-min Rain = 0
KREE 250201Z 13018G23KT 19/11 A2973 RMK A01 T01920109  RH  059%=      5-min Rain = 0
KREE 250202Z 14019KT 19/11 A2973 RMK A01 T01920109  RH  059%=      5-min Rain = 0
KREE 250203Z 14017G23KT 19/11 A2973 RMK A01 T01920109  RH  059%=      5-min Rain = 0
KREE 250204Z 14017G22KT 19/11 A2974 RMK A01 T01910111  RH  060%=      5-min Rain = 0
KREE 250205Z 13018KT 19/11 A2974 RMK A01 T01900111  RH  060%=      5-min Rain = 0
KREE 250206Z 13019G25KT 19/11 A2974 RMK A01 T01890112  RH  061%=      5-min Rain = 0
KREE 250207Z 12018G24KT 19/11 A2974 RMK A01 T01890110  RH  060%=      5-min Rain = 0
KREE 250208Z 12019KT 19/11 A2973 RMK A01 T01880111  RH  061%=      5-min Rain = 0
KREE 250209Z 12020G25KT 19/11 A2973 RMK A01 T01880110  RH  061%=      5-min Rain = 0
KREE 250210Z 12017G22KT 19/11 A2973 RMK A01 T01870111  RH  061%=      5-min Rain = 0
KREE 250211Z 12019KT 19/11 A2973 RMK A01 T01870109  RH  060%=      5-min Rain = 0
KREE 250212Z 12016KT 19/11 A2972 RMK A01 T01870110  RH  061%=      5-min Rain = 0
KREE 250213Z 12017KT 19/11 A2972 RMK A01 T01870111  RH  061%=      5-min Rain = 0
KREE 250214Z 11016KT 19/11 A2972 RMK A01 T01870108  RH  060%=      5-min Rain = 0
KREE 250215Z 12016KT 19/11 A2972 RMK A01 T01880111  RH  061%=      5-min Rain = 0
KREE 250216Z 12015KT 19/11 A2972 RMK A01 T01880109  RH  060%=      5-min Rain = 0
KREE 250217Z 12014KT 19/11 A2973 RMK A01 T01890110  RH  060%=      5-min Rain = 0
KREE 250218Z 13015KT 19/11 A2973 RMK A01 T01890109  RH  060%=      5-min Rain = 0
KREE 250219Z 13014KT 19/11 A2973 RMK A01 T01900110  RH  060%=      5-min Rain = 0
KREE 250220Z 13012KT 19/11 A2973 RMK A01 T01900112  RH  061%=      5-min Rain = 0
KREE 250221Z 12013KT 19/11 A2973 RMK A01 T01890111  RH  060%=      5-min Rain = 0
KREE 250222Z 12014KT 19/11 A2973 RMK A01 T01890109  RH  060%=      5-min Rain = 0
KREE 250223Z 11016KT 19/11 A2973 RMK A01 T01900106  RH  058%=      5-min Rain = 0
KREE 250224Z 11015KT 19/11 A2973 RMK A01 T01910105  RH  057%=      5-min Rain = 0
KREE 250225Z 11016KT 19/11 A2973 RMK A01 T01920107  RH  058%=      5-min Rain = 0
KREE 250226Z 11015KT 19/11 A2973 RMK A01 T01920106  RH  057%=      5-min Rain = 0
KREE 250227Z 11015KT 19/11 A2973 RMK A01 T01920108  RH  058%=      5-min Rain = 0
KREE 250228Z 11016KT 19/11 A2973 RMK A01 T01920106  RH  057%=      5-min Rain = 0
KREE 250229Z 12014G19KT 19/11 A2973 RMK A01 T01920106  RH  057%=      5-min Rain = 0
KREE 250230Z 12013KT 19/11 A2973 RMK A01 T01920109  RH  058%=      5-min Rain = 0
KREE 250231Z 12014KT 19/11 A2973 RMK A01 T01920107  RH  058%=      5-min Rain = 0
KREE 250232Z 12013KT 19/10 A2973 RMK A01 T01920104  RH  057%=      5-min Rain = 0
KREE 250233Z 12011KT 19/11 A2972 RMK A01 T01930109  RH  058%=      5-min Rain = 0
KREE 250234Z 11011KT 19/11 A2972 RMK A01 T01920109  RH  059%=      5-min Rain = 0
KREE 250235Z 11013KT 19/11 A2972 RMK A01 T01910108  RH  059%=      5-min Rain = 0
KREE 250236Z 10011KT 19/11 A2972 RMK A01 T01910111  RH  060%=      5-min Rain = 0
KREE 250237Z 10011KT 19/11 A2972 RMK A01 T01900110  RH  060%=      5-min Rain = 0
KREE 250238Z 10009KT 19/11 A2972 RMK A01 T01890114  RH  062%=      5-min Rain = 0
KREE 250239Z 10010KT 19/11 A2972 RMK A01 T01880113  RH  062%=      5-min Rain = 0
KREE 250240Z 10010KT 19/11 A2972 RMK A01 T01870113  RH  062%=      5-min Rain = 0
KREE 250241Z 10009KT 19/11 A2972 RMK A01 T01870114  RH  063%=      5-min Rain = 0
KREE 250242Z 10010KT 19/11 A2972 RMK A01 T01860112  RH  062%=      5-min Rain = 0
KREE 250243Z 10009KT 19/11 A2971 RMK A01 T01860112  RH  062%=      5-min Rain = 0
KREE 250244Z 10009KT 19/11 A2971 RMK A01 T01860110  RH  061%=      5-min Rain = 0
KREE 250245Z 10009KT 19/11 A2971 RMK A01 T01860112  RH  062%=      5-min Rain = 0
KREE 250246Z 10009KT 19/11 A2971 RMK A01 T01870111  RH  061%=      5-min Rain = 0
KREE 250247Z 10009KT 19/11 A297 RMK A01 T01870111  RH  061%=      5-min Rain = 0
KREE 250248Z 11008KT 19/11 A297 RMK A01 T01870113  RH  062%=      5-min Rain = 0
KREE 250249Z 11008KT 19/11 A297 RMK A01 T01860112  RH  062%=      5-min Rain = 0
KREE 250250Z 10007KT 19/11 A297 RMK A01 T01860112  RH  062%=      5-min Rain = 0
KREE 250251Z 10007KT 19/11 A297 RMK A01 T01860114  RH  063%=      5-min Rain = 0
KREE 250252Z 10007KT 19/12 A2969 RMK A01 T01850115  RH  063%=      5-min Rain = 0
KREE 250253Z 09006KT 19/12 A2969 RMK A01 T01850116  RH  064%=      5-min Rain = 0
KREE 250254Z 09006KT 18/12 A2969 RMK A01 T01840117  RH  065%=      5-min Rain = 0
KREE 250255Z 09006KT 18/12 A2969 RMK A01 T01830117  RH  065%=      5-min Rain = 0
KREE 250256Z 10006KT 18/12 A2969 RMK A01 T01830118  RH  066%=      5-min Rain = 0
KREE 250257Z 10006KT 18/12 A2969 RMK A01 T01820118  RH  066%=      5-min Rain = 0
KREE 250258Z 11006KT 18/12 A2969 RMK A01 T01820120  RH  067%=      5-min Rain = 0
KREE 250259Z 11006KT 18/12 A2969 RMK A01 T01820119  RH  067%=      5-min Rain = 0
KREE 250300Z 11006KT 18/12 A2968 RMK A01 T01810120  RH  067%=      5-min Rain = 0
KREE 250301Z 11007KT 18/12 A2968 RMK A01 T01810120  RH  067%=      5-min Rain = 0
KREE 250302Z 12007KT 18/12 A2968 RMK A01 T01810119  RH  067%=      5-min Rain = 0
KREE 250303Z 12006KT 18/12 A2968 RMK A01 T01810120  RH  067%=      5-min Rain = 0
KREE 250304Z 12006KT 18/12 A2968 RMK A01 T01810122  RH  068%=      5-min Rain = 0
KREE 250305Z 12006KT 18/12 A2968 RMK A01 T01800122  RH  069%=      5-min Rain = 0
KREE 250306Z 11006KT 18/12 A2968 RMK A01 T01800121  RH  069%=      5-min Rain = 0
KREE 250307Z 11006KT 18/12 A2969 RMK A01 T01800121  RH  068%=      5-min Rain = 0
KREE 250308Z 09006KT 18/12 A2969 RMK A01 T01800120  RH  068%=      5-min Rain = 0
KREE 250309Z 09006KT 18/12 A2969 RMK A01 T01800120  RH  068%=      5-min Rain = 0
KREE 250310Z 09006KT 18/12 A2969 RMK A01 T01800122  RH  069%=      5-min Rain = 0
KREE 250311Z 10006KT 18/12 A2969 RMK A01 T01790122  RH  069%=      5-min Rain = 0
KREE 250312Z 10006KT 18/12 A2969 RMK A01 T01790122  RH  069%=      5-min Rain = 0
KREE 250313Z 11006KT 18/12 A2969 RMK A01 T01790120  RH  069%=      5-min Rain = 0
KREE 250314Z 11006KT 18/12 A297 RMK A01 T01790120  RH  069%=      5-min Rain = 0
KREE 250315Z 11006KT 18/12 A297 RMK A01 T01790121  RH  069%=      5-min Rain = 0
KREE 250316Z 11007KT 18/12 A297 RMK A01 T01790120  RH  068%=      5-min Rain = 0
KREE 250317Z 10007KT 18/12 A297 RMK A01 T01790121  RH  069%=      5-min Rain = 0
KREE 250318Z 10007KT 18/12 A297 RMK A01 T01790122  RH  069%=      5-min Rain = 0
KREE 250319Z 10006KT 18/12 A297 RMK A01 T01790122  RH  069%=      5-min Rain = 0
KREE 250320Z 10006KT 18/12 A297 RMK A01 T01790122  RH  069%=      5-min Rain = 0
KREE 250321Z 09006KT 18/12 A297 RMK A01 T01790124  RH  070%=      5-min Rain = 0
KREE 250322Z 09006KT 18/12 A297 RMK A01 T01780124  RH  070%=      5-min Rain = 0
KREE 250323Z 09006KT 18/12 A297 RMK A01 T01770124  RH  071%=      5-min Rain = 0
KREE 250324Z 09006KT 18/12 A297 RMK A01 T01770123  RH  071%=      5-min Rain = 0
KREE 250325Z 10005KT 18/13 A297 RMK A01 T01760125  RH  072%=      5-min Rain = 0
KREE 250326Z 09005KT 18/13 A297 RMK A01 T01760125  RH  072%=      5-min Rain = 0
KREE 250327Z 08004KT 18/13 A2971 RMK A01 T01760126  RH  072%=      5-min Rain = 0
KREE 250328Z 08004KT 18/13 A2971 RMK A01 T01750126  RH  073%=      5-min Rain = 0
KREE 250329Z 09004KT 17/13 A2971 RMK A01 T01740125  RH  073%=      5-min Rain = 0
KREE 250330Z 09005KT 17/13 A2971 RMK A01 T01740126  RH  073%=      5-min Rain = 0
KREE 250331Z 08005KT 17/13 A2971 RMK A01 T01740127  RH  074%=      5-min Rain = 0
KREE 250332Z 07005KT 17/13 A2971 RMK A01 T01730129  RH  075%=      5-min Rain = 0
KREE 250333Z 08005KT 17/13 A2971 RMK A01 T01730130  RH  076%=      5-min Rain = 0
KREE 250334Z 09005KT 17/13 A297 RMK A01 T01730132  RH  077%=      5-min Rain = 0
KREE 250335Z 08005KT 17/13 A297 RMK A01 T01720130  RH  076%=      5-min Rain = 0
KREE 250336Z 08005KT 17/13 A297 RMK A01 T01720129  RH  076%=      5-min Rain = 0
KREE 250337Z 08005KT 17/13 A297 RMK A01 T01720129  RH  076%=      5-min Rain = 0
KREE 250338Z 08006KT 17/13 A297 RMK A01 T01720130  RH  076%=      5-min Rain = 0
KREE 250339Z 08006KT 17/13 A297 RMK A01 T01720128  RH  075%=      5-min Rain = 0
KREE 250340Z 09005KT 17/13 A297 RMK A01 T01720126  RH  075%=      5-min Rain = 0
KREE 250341Z 09006KT 17/12 A297 RMK A01 T01710123  RH  073%=      5-min Rain = 0
KREE 250342Z 11006KT 17/12 A297 RMK A01 T01720123  RH  073%=      5-min Rain = 0
KREE 250343Z 12006KT 17/13 A2971 RMK A01 T01730125  RH  074%=      5-min Rain = 0
KREE 250344Z 13007KT 17/13 A2971 RMK A01 T01730129  RH  076%=      5-min Rain = 0
KREE 250345Z 13007KT 17/13 A2971 RMK A01 T01720131  RH  076%=      5-min Rain = 0
KREE 250346Z 13007KT 17/13 A2971 RMK A01 T01720129  RH  076%=      5-min Rain = 0
KREE 250347Z 12005KT 17/13 A2971 RMK A01 T01710127  RH  075%=      5-min Rain = 0
KREE 250348Z 10004KT 17/13 A2971 RMK A01 T01710126  RH  075%=      5-min Rain = 0
KREE 250349Z 09003KT 17/13 A2971 RMK A01 T01710126  RH  075%=      5-min Rain = 0
KREE 250350Z 11003KT 17/13 A2971 RMK A01 T01720127  RH  075%=      5-min Rain = 0
KREE 250351Z 13004KT 17/13 A2971 RMK A01 T01720125  RH  074%=      5-min Rain = 0
KREE 250352Z 15006KT 17/13 A2971 RMK A01 T01720126  RH  074%=      5-min Rain = 0
KREE 250353Z 16007KT 17/13 A2972 RMK A01 T01720127  RH  075%=      5-min Rain = 0
KREE 250354Z 15006KT 17/13 A2972 RMK A01 T01720126  RH  074%=      5-min Rain = 0
KREE 250355Z 14005KT 17/13 A2972 RMK A01 T01720126  RH  074%=      5-min Rain = 0
KREE 250356Z 13005KT 17/12 A2972 RMK A01 T01720123  RH  073%=      5-min Rain = 0
KREE 250357Z 14006KT 17/12 A2972 RMK A01 T01720124  RH  073%=      5-min Rain = 0
KREE 250358Z 15007KT 17/12 A2972 RMK A01 T01720124  RH  073%=      5-min Rain = 0
KREE 250359Z 15007KT 17/12 A2972 RMK A01 T01720124  RH  074%=      5-min Rain = 0
KREE 250400Z 14006KT 17/13 A2972 RMK A01 T01710125  RH  074%=      5-min Rain = 0
KREE 250401Z 13005KT 17/12 A2972 RMK A01 T01710121  RH  073%=      5-min Rain = 0
KREE 250402Z 13005KT 17/12 A2973 RMK A01 T01710122  RH  073%=      5-min Rain = 0
KREE 250403Z 14005KT 17/13 A2973 RMK A01 T01710125  RH  074%=      5-min Rain = 0
KREE 250404Z 14005KT 17/13 A2973 RMK A01 T01710127  RH  075%=      5-min Rain = 0
KREE 250405Z 13005KT 17/13 A2973 RMK A01 T01710127  RH  075%=      5-min Rain = 0
KREE 250406Z 11005KT 17/12 A2973 RMK A01 T01700124  RH  074%=      5-min Rain = 0
KREE 250407Z 09005KT 17/12 A2973 RMK A01 T01710123  RH  073%=      5-min Rain = 0
KREE 250408Z 09005KT 17/12 A2973 RMK A01 T01720124  RH  073%=      5-min Rain = 0
KREE 250409Z 10005KT 17/12 A2973 RMK A01 T01720124  RH  073%=      5-min Rain = 0
KREE 250410Z 11006KT 17/13 A2974 RMK A01 T01720125  RH  074%=      5-min Rain = 0
KREE 250411Z 11007KT 17/13 A2974 RMK A01 T01720125  RH  074%=      5-min Rain = 0
KREE 250412Z 11006KT 17/13 A2974 RMK A01 T01730126  RH  074%=      5-min Rain = 0
KREE 250413Z 11006KT 17/13 A2974 RMK A01 T01730127  RH  075%=      5-min Rain = 0
KREE 250414Z 11005KT 17/13 A2974 RMK A01 T01730128  RH  075%=      5-min Rain = 0
KREE 250415Z 12005KT 17/13 A2974 RMK A01 T01720129  RH  076%=      5-min Rain = 0
KREE 250416Z 12006KT 17/13 A2974 RMK A01 T01720128  RH  075%=      5-min Rain = 0
KREE 250417Z 13006KT 17/13 A2974 RMK A01 T01720128  RH  075%=      5-min Rain = 0
KREE 250418Z 12006KT 17/13 A2974 RMK A01 T01720129  RH  076%=      5-min Rain = 0
KREE 250419Z 11006KT 17/13 A2974 RMK A01 T01720129  RH  076%=      5-min Rain = 0
KREE 250420Z 10007KT 17/13 A2974 RMK A01 T01710130  RH  076%=      5-min Rain = 0
KREE 250421Z 10007KT 17/13 A2975 RMK A01 T01710129  RH  077%=      5-min Rain = 0
KREE 250422Z 11007KT 17/13 A2975 RMK A01 T01700130  RH  077%=      5-min Rain = 0
KREE 250423Z 12007KT 17/13 A2975 RMK A01 T01700131  RH  078%=      5-min Rain = 0
KREE 250424Z 12008KT 17/13 A2975 RMK A01 T01700132  RH  078%=      5-min Rain = 0
KREE 250425Z 11008KT 17/13 A2975 RMK A01 T01700131  RH  078%=      5-min Rain = 0
KREE 250426Z 11009KT 17/13 A2976 RMK A01 T01700128  RH  076%=      5-min Rain = 0
KREE 250427Z 12010KT 17/13 A2976 RMK A01 T01700128  RH  076%=      5-min Rain = 0
KREE 250428Z 13010KT 17/13 A2976 RMK A01 T01710129  RH  076%=      5-min Rain = 0
KREE 250429Z 13009KT 17/13 A2977 RMK A01 T01710130  RH  077%=      5-min Rain = 0
KREE 250430Z 13009KT 17/13 A2977 RMK A01 T01710128  RH  076%=      5-min Rain = 0
KREE 250431Z 12010KT 17/13 A2977 RMK A01 T01720128  RH  075%=      5-min Rain = 0
KREE 250432Z 12011KT 17/13 A2977 RMK A01 T01720127  RH  075%=      5-min Rain = 0
KREE 250433Z 12011KT 17/13 A2977 RMK A01 T01720126  RH  074%=      5-min Rain = 0
KREE 250434Z 13010KT 17/13 A2977 RMK A01 T01730126  RH  074%=      5-min Rain = 0
KREE 250435Z 13011KT 17/13 A2977 RMK A01 T01730127  RH  074%=      5-min Rain = 0
KREE 250436Z 13013KT 17/13 A2977 RMK A01 T01720126  RH  074%=      5-min Rain = 0
KREE 250437Z 14012KT 17/13 A2977 RMK A01 T01710128  RH  076%=      5-min Rain = 0
KREE 250438Z 13014KT 17/13 A2977 RMK A01 T01700127  RH  076%=      5-min Rain = 0
KREE 250439Z 13012KT 17/13 A2978 RMK A01 T01700125  RH  075%=      5-min Rain = 0
KREE 250440Z 14015KT 17/13 A2978 RMK A01 T01700125  RH  075%=      5-min Rain = 0
KREE 250441Z 14013KT 17/13 A2978 RMK A01 T01690126  RH  076%=      5-min Rain = 0
KREE 250442Z 14014KT 17/13 A2978 RMK A01 T01680125  RH  076%=      5-min Rain = 0
KREE 250443Z 13013KT 17/12 A2978 RMK A01 T01670124  RH  076%=      5-min Rain = 0
KREE 250444Z 14013KT 17/13 A2979 RMK A01 T01670126  RH  077%=      5-min Rain = 0
KREE 250445Z 14013KT 17/13 A2979 RMK A01 T01660125  RH  077%=      5-min Rain = 0
KREE 250446Z 14013KT 17/13 A2979 RMK A01 T01660125  RH  077%=      5-min Rain = 0
KREE 250447Z 14013KT 17/13 A2979 RMK A01 T01660127  RH  078%=      5-min Rain = 0
KREE 250448Z 14013KT 17/13 A2979 RMK A01 T01650126  RH  078%=      5-min Rain = 0
KREE 250449Z 14013KT 17/13 A2979 RMK A01 T01650126  RH  078%=      5-min Rain = 0
KREE 250450Z 13012KT 17/13 A2979 RMK A01 T01650125  RH  077%=      5-min Rain = 0
KREE 250451Z 13012KT 17/13 A298 RMK A01 T01650127  RH  078%=      5-min Rain = 0
KREE 250452Z 13012KT 17/13 A298 RMK A01 T01650126  RH  078%=      5-min Rain = 0
KREE 250453Z 12012KT 17/12 A298 RMK A01 T01650124  RH  077%=      5-min Rain = 0
KREE 250454Z 13010KT 17/13 A298 RMK A01 T01650125  RH  078%=      5-min Rain = 0
KREE 250455Z 12011KT 17/13 A298 RMK A01 T01650125  RH  077%=      5-min Rain = 0
KREE 250456Z 12012KT 17/12 A298 RMK A01 T01650123  RH  077%=      5-min Rain = 0
KREE 250457Z 12010KT 17/12 A298 RMK A01 T01650123  RH  076%=      5-min Rain = 0
KREE 250458Z 13011KT 17/12 A298 RMK A01 T01650124  RH  077%=      5-min Rain = 0
KREE 250459Z 12011KT 17/13 A2981 RMK A01 T01650125  RH  077%=      5-min Rain = 0

Page generated in 0.2135 seconds.